
Distance (Route):
Temperature : 0°C
Humidity : 0%
Pressure : 0hPa| Receiver | Frames | First received | Last received |
|---|---|---|---|
| RDZBGO | 425 | 2026-08-31 11:36:15 | 2026-08-31 14:09:58 |
| Receiver | Date | Latitude | Longitude | Direction | Speed | Altitude | Climb | Temperature | Humidity | Pressure | Voltage | Killtimer | Uptime | BKT | XDATA |
|---|---|---|---|---|---|---|---|---|---|---|---|---|---|---|---|
| RDZBGO | 2026-08-31 14:09:58 | 42.14611 | 10.14291 | 143° | 33km/h | 2294m | -2.6m/s | 0°C | 0% | 0hPa | 0V | 00:00:00 | 00:00:00 | 00:00:00 | |
| RDZBGO | 2026-08-31 14:09:29 | 42.14814 | 10.14089 | 138° | 31km/h | 2371m | -3.0m/s | 0°C | 0% | 0hPa | 0V | 00:00:00 | 00:00:00 | 00:00:00 | |
| RDZBGO | 2026-08-31 14:08:58 | 42.15007 | 10.13862 | 138° | 29km/h | 2455m | -2.0m/s | 0°C | 0% | 0hPa | 0V | 00:00:00 | 00:00:00 | 00:00:00 | |
| RDZBGO | 2026-08-31 14:08:37 | 42.15132 | 10.13711 | 138° | 33km/h | 2515m | -2.7m/s | 0°C | 0% | 0hPa | 0V | 00:00:00 | 00:00:00 | 00:00:00 | |
| RDZBGO | 2026-08-31 14:08:16 | 42.15258 | 10.13553 | 136° | 31km/h | 2573m | -1.9m/s | 0°C | 0% | 0hPa | 0V | 00:00:00 | 00:00:00 | 00:00:00 | |
| RDZBGO | 2026-08-31 14:07:56 | 42.15377 | 10.13397 | 135° | 33km/h | 2629m | -2.8m/s | 0°C | 0% | 0hPa | 0V | 00:00:00 | 00:00:00 | 00:00:00 | |
| RDZBGO | 2026-08-31 14:07:29 | 42.15531 | 10.13190 | 133° | 27km/h | 2707m | -2.9m/s | 0°C | 0% | 0hPa | 0V | 00:00:00 | 00:00:00 | 00:00:00 | |
| RDZBGO | 2026-08-31 14:07:02 | 42.15659 | 10.13008 | 137° | 27km/h | 2787m | -2.7m/s | 0°C | 0% | 0hPa | 0V | 00:00:00 | 00:00:00 | 00:00:00 | |
| RDZBGO | 2026-08-31 14:06:41 | 42.15748 | 10.12866 | 122° | 27km/h | 2849m | -2.9m/s | 0°C | 0% | 0hPa | 0V | 00:00:00 | 00:00:00 | 00:00:00 | |
| RDZBGO | 2026-08-31 14:06:20 | 42.15822 | 10.12711 | 115° | 26km/h | 2909m | -3.9m/s | 0°C | 0% | 0hPa | 0V | 00:00:00 | 00:00:00 | 00:00:00 | |
| RDZBGO | 2026-08-31 14:05:51 | 42.15920 | 10.12486 | 119° | 27km/h | 3006m | -2.5m/s | 0°C | 0% | 0hPa | 0V | 00:00:00 | 00:00:00 | 00:00:00 | |
| RDZBGO | 2026-08-31 14:05:30 | 42.15998 | 10.12309 | 117° | 31km/h | 3077m | -3.2m/s | 0°C | 0% | 0hPa | 0V | 00:00:00 | 00:00:00 | 00:00:00 | |
| RDZBGO | 2026-08-31 14:05:09 | 42.16072 | 10.12088 | 111° | 33km/h | 3154m | -3.1m/s | 0°C | 0% | 0hPa | 0V | 00:00:00 | 00:00:00 | 00:00:00 | |
| RDZBGO | 2026-08-31 14:04:48 | 42.16141 | 10.11854 | 116° | 33km/h | 3230m | -1.4m/s | 0°C | 0% | 0hPa | 0V | 00:00:00 | 00:00:00 | 00:00:00 | |
| RDZBGO | 2026-08-31 14:04:28 | 42.16219 | 10.11630 | 114° | 35km/h | 3308m | -4.1m/s | 0°C | 0% | 0hPa | 0V | 00:00:00 | 00:00:00 | 00:00:00 | |
| RDZBGO | 2026-08-31 14:04:07 | 42.16302 | 10.11385 | 119° | 37km/h | 3395m | -2.7m/s | 0°C | 0% | 0hPa | 0V | 00:00:00 | 00:00:00 | 00:00:00 | |
| RDZBGO | 2026-08-31 14:03:46 | 42.16393 | 10.11141 | 110° | 38km/h | 3475m | -3.8m/s | 0°C | 0% | 0hPa | 0V | 00:00:00 | 00:00:00 | 00:00:00 | |
| RDZBGO | 2026-08-31 14:03:25 | 42.16486 | 10.10891 | 120° | 40km/h | 3551m | -3.8m/s | 0°C | 0% | 0hPa | 0V | 00:00:00 | 00:00:00 | 00:00:00 | |
| RDZBGO | 2026-08-31 14:03:04 | 42.16581 | 10.10629 | 115° | 40km/h | 3634m | -3.6m/s | 0°C | 0% | 0hPa | 0V | 00:00:00 | 00:00:00 | 00:00:00 | |
| RDZBGO | 2026-08-31 14:02:44 | 42.16661 | 10.10350 | 110° | 46km/h | 3706m | -2.8m/s | 0°C | 0% | 0hPa | 0V | 00:00:00 | 00:00:00 | 00:00:00 | |
| RDZBGO | 2026-08-31 14:02:23 | 42.16739 | 10.10040 | 107° | 46km/h | 3780m | -3.3m/s | 0°C | 0% | 0hPa | 0V | 00:00:00 | 00:00:00 | 00:00:00 | |
| RDZBGO | 2026-08-31 14:02:03 | 42.16806 | 10.09748 | 109° | 44km/h | 3853m | -3.6m/s | 0°C | 0% | 0hPa | 0V | 00:00:00 | 00:00:00 | 00:00:00 | |
| RDZBGO | 2026-08-31 14:01:42 | 42.16870 | 10.09449 | 108° | 44km/h | 3928m | -3.7m/s | 0°C | 0% | 0hPa | 0V | 00:00:00 | 00:00:00 | 00:00:00 | |
| RDZBGO | 2026-08-31 14:01:21 | 42.16936 | 10.09127 | 107° | 47km/h | 4001m | -3.5m/s | 0°C | 0% | 0hPa | 0V | 00:00:00 | 00:00:00 | 00:00:00 | |
| RDZBGO | 2026-08-31 14:01:01 | 42.17001 | 10.08788 | 105° | 53km/h | 4070m | -3.4m/s | 0°C | 0% | 0hPa | 0V | 00:00:00 | 00:00:00 | 00:00:00 | |
| RDZBGO | 2026-08-31 14:00:40 | 42.17064 | 10.08427 | 104° | 53km/h | 4139m | -3.3m/s | 0°C | 0% | 0hPa | 0V | 00:00:00 | 00:00:00 | 00:00:00 | |
| RDZBGO | 2026-08-31 14:00:20 | 42.17125 | 10.08079 | 104° | 53km/h | 4205m | -3.1m/s | 0°C | 0% | 0hPa | 0V | 00:00:00 | 00:00:00 | 00:00:00 | |
| RDZBGO | 2026-08-31 13:59:59 | 42.17188 | 10.07698 | 104° | 57km/h | 4273m | -3.3m/s | 0°C | 0% | 0hPa | 0V | 00:00:00 | 00:00:00 | 00:00:00 | |
| RDZBGO | 2026-08-31 13:59:38 | 42.17259 | 10.07310 | 106° | 55km/h | 4337m | -3.0m/s | 0°C | 0% | 0hPa | 0V | 00:00:00 | 00:00:00 | 00:00:00 | |
| RDZBGO | 2026-08-31 13:59:18 | 42.17325 | 10.06943 | 105° | 57km/h | 4396m | -3.2m/s | 0°C | 0% | 0hPa | 0V | 00:00:00 | 00:00:00 | 00:00:00 | |
| RDZBGO | 2026-08-31 13:58:57 | 42.17390 | 10.06558 | 104° | 55km/h | 4456m | -2.9m/s | 0°C | 0% | 0hPa | 0V | 00:00:00 | 00:00:00 | 00:00:00 | |
| RDZBGO | 2026-08-31 13:58:37 | 42.17447 | 10.06193 | 102° | 53km/h | 4514m | -2.6m/s | 0°C | 0% | 0hPa | 0V | 00:00:00 | 00:00:00 | 00:00:00 | |
| RDZBGO | 2026-08-31 13:58:17 | 42.17496 | 10.05827 | 101° | 55km/h | 4571m | -2.8m/s | 0°C | 0% | 0hPa | 0V | 00:00:00 | 00:00:00 | 00:00:00 | |
| RDZBGO | 2026-08-31 13:57:57 | 42.17546 | 10.05441 | 101° | 60km/h | 4629m | -2.8m/s | 0°C | 0% | 0hPa | 0V | 00:00:00 | 00:00:00 | 00:00:00 | |
| RDZBGO | 2026-08-31 13:57:37 | 42.17592 | 10.05019 | 98° | 60km/h | 4690m | -2.8m/s | 0°C | 0% | 0hPa | 0V | 00:00:00 | 00:00:00 | 00:00:00 | |
| RDZBGO | 2026-08-31 13:57:15 | 42.17617 | 10.04603 | 93° | 58km/h | 4754m | -2.8m/s | 0°C | 0% | 0hPa | 0V | 00:00:00 | 00:00:00 | 00:00:00 | |
| RDZBGO | 2026-08-31 13:56:54 | 42.17641 | 10.04185 | 96° | 60km/h | 4818m | -3.0m/s | 0°C | 0% | 0hPa | 0V | 00:00:00 | 00:00:00 | 00:00:00 | |
| RDZBGO | 2026-08-31 13:56:34 | 42.17657 | 10.03780 | 94° | 58km/h | 4882m | -3.2m/s | 0°C | 0% | 0hPa | 0V | 00:00:00 | 00:00:00 | 00:00:00 | |
| RDZBGO | 2026-08-31 13:56:13 | 42.17662 | 10.03360 | 91° | 58km/h | 4948m | -3.0m/s | 0°C | 0% | 0hPa | 0V | 00:00:00 | 00:00:00 | 00:00:00 | |
| RDZBGO | 2026-08-31 13:55:53 | 42.17656 | 10.02956 | 90° | 60km/h | 5011m | -3.2m/s | 0°C | 0% | 0hPa | 0V | 00:00:00 | 00:00:00 | 00:00:00 | |
| RDZBGO | 2026-08-31 13:55:32 | 42.17645 | 10.02531 | 89° | 58km/h | 5079m | -2.9m/s | 0°C | 0% | 0hPa | 0V | 00:00:00 | 00:00:00 | 00:00:00 | |
| RDZBGO | 2026-08-31 13:55:12 | 42.17629 | 10.02136 | 88° | 58km/h | 5143m | -3.2m/s | 0°C | 0% | 0hPa | 0V | 00:00:00 | 00:00:00 | 00:00:00 | |
| RDZBGO | 2026-08-31 13:54:52 | 42.17610 | 10.01740 | 87° | 58km/h | 5209m | -3.2m/s | 0°C | 0% | 0hPa | 0V | 00:00:00 | 00:00:00 | 00:00:00 | |
| RDZBGO | 2026-08-31 13:54:31 | 42.17594 | 10.01325 | 89° | 58km/h | 5277m | -3.1m/s | 0°C | 0% | 0hPa | 0V | 00:00:00 | 00:00:00 | 00:00:00 | |
| RDZBGO | 2026-08-31 13:54:10 | 42.17579 | 10.00911 | 89° | 58km/h | 5344m | -3.1m/s | 0°C | 0% | 0hPa | 0V | 00:00:00 | 00:00:00 | 00:00:00 | |
| RDZBGO | 2026-08-31 13:53:49 | 42.17567 | 10.00493 | 89° | 60km/h | 5414m | -3.2m/s | 0°C | 0% | 0hPa | 0V | 00:00:00 | 00:00:00 | 00:00:00 | |
| RDZBGO | 2026-08-31 13:53:28 | 42.17561 | 10.00067 | 90° | 60km/h | 5485m | -3.0m/s | 0°C | 0% | 0hPa | 0V | 00:00:00 | 00:00:00 | 00:00:00 | |
| RDZBGO | 2026-08-31 13:53:08 | 42.17559 | 9.99660 | 90° | 62km/h | 5553m | -3.2m/s | 0°C | 0% | 0hPa | 0V | 00:00:00 | 00:00:00 | 00:00:00 | |
| RDZBGO | 2026-08-31 13:52:48 | 42.17556 | 9.99249 | 90° | 57km/h | 5623m | -3.3m/s | 0°C | 0% | 0hPa | 0V | 00:00:00 | 00:00:00 | 00:00:00 | |
| RDZBGO | 2026-08-31 13:52:27 | 42.17546 | 9.98828 | 90° | 60km/h | 5696m | -3.9m/s | 0°C | 0% | 0hPa | 0V | 00:00:00 | 00:00:00 | 00:00:00 | |
| RDZBGO | 2026-08-31 13:52:06 | 42.17542 | 9.98409 | 94° | 58km/h | 5774m | -3.5m/s | 0°C | 0% | 0hPa | 0V | 00:00:00 | 00:00:00 | 00:00:00 | |
| RDZBGO | 2026-08-31 13:51:45 | 42.17572 | 9.97995 | 99° | 58km/h | 5853m | -3.6m/s | 0°C | 0% | 0hPa | 0V | 00:00:00 | 00:00:00 | 00:00:00 | |
| RDZBGO | 2026-08-31 13:51:24 | 42.17622 | 9.97587 | 100° | 58km/h | 5936m | -3.7m/s | 0°C | 0% | 0hPa | 0V | 00:00:00 | 00:00:00 | 00:00:00 | |
| RDZBGO | 2026-08-31 13:51:03 | 42.17676 | 9.97176 | 101° | 58km/h | 6017m | -3.6m/s | 0°C | 0% | 0hPa | 0V | 00:00:00 | 00:00:00 | 00:00:00 | |
| RDZBGO | 2026-08-31 13:50:42 | 42.17725 | 9.96758 | 100° | 62km/h | 6099m | -3.7m/s | 0°C | 0% | 0hPa | 0V | 00:00:00 | 00:00:00 | 00:00:00 | |
| RDZBGO | 2026-08-31 13:50:21 | 42.17773 | 9.96316 | 98° | 62km/h | 6182m | -3.8m/s | 0°C | 0% | 0hPa | 0V | 00:00:00 | 00:00:00 | 00:00:00 | |
| RDZBGO | 2026-08-31 13:50:00 | 42.17804 | 9.95873 | 98° | 62km/h | 6264m | -3.7m/s | 0°C | 0% | 0hPa | 0V | 00:00:00 | 00:00:00 | 00:00:00 | |
| RDZBGO | 2026-08-31 13:49:39 | 42.17840 | 9.95437 | 98° | 62km/h | 6345m | -3.7m/s | 0°C | 0% | 0hPa | 0V | 00:00:00 | 00:00:00 | 00:00:00 | |
| RDZBGO | 2026-08-31 13:49:18 | 42.17874 | 9.94999 | 97° | 62km/h | 6425m | -3.5m/s | 0°C | 0% | 0hPa | 0V | 00:00:00 | 00:00:00 | 00:00:00 | |
| RDZBGO | 2026-08-31 13:48:57 | 42.17908 | 9.94560 | 97° | 62km/h | 6503m | -3.6m/s | 0°C | 0% | 0hPa | 0V | 00:00:00 | 00:00:00 | 00:00:00 | |
| RDZBGO | 2026-08-31 13:48:37 | 42.17951 | 9.94143 | 101° | 62km/h | 6575m | -3.6m/s | 0°C | 0% | 0hPa | 0V | 00:00:00 | 00:00:00 | 00:00:00 | |
| RDZBGO | 2026-08-31 13:48:16 | 42.18011 | 9.93714 | 102° | 60km/h | 6652m | -3.4m/s | 0°C | 0% | 0hPa | 0V | 00:00:00 | 00:00:00 | 00:00:00 | |
| RDZBGO | 2026-08-31 13:47:35 | 42.18104 | 9.92883 | 97° | 58km/h | 6798m | -3.1m/s | 0°C | 0% | 0hPa | 0V | 00:00:00 | 00:00:00 | 00:00:00 | |
| RDZBGO | 2026-08-31 13:47:14 | 42.18129 | 9.92460 | 93° | 58km/h | 6871m | -3.7m/s | 0°C | 0% | 0hPa | 0V | 00:00:00 | 00:00:00 | 00:00:00 | |
| RDZBGO | 2026-08-31 13:46:53 | 42.18136 | 9.92032 | 93° | 62km/h | 6946m | -3.5m/s | 0°C | 0% | 0hPa | 0V | 00:00:00 | 00:00:00 | 00:00:00 | |
| RDZBGO | 2026-08-31 13:46:33 | 42.18147 | 9.91607 | 93° | 62km/h | 7014m | -2.5m/s | 0°C | 0% | 0hPa | 0V | 00:00:00 | 00:00:00 | 00:00:00 | |
| RDZBGO | 2026-08-31 13:46:13 | 42.18144 | 9.91186 | 91° | 66km/h | 7089m | -2.8m/s | 0°C | 0% | 0hPa | 0V | 00:00:00 | 00:00:00 | 00:00:00 | |
| RDZBGO | 2026-08-31 13:45:52 | 42.18163 | 9.90723 | 93° | 66km/h | 7158m | -4.3m/s | 0°C | 0% | 0hPa | 0V | 00:00:00 | 00:00:00 | 00:00:00 | |
| RDZBGO | 2026-08-31 13:45:31 | 42.18205 | 9.90253 | 97° | 68km/h | 7234m | -1.9m/s | 0°C | 0% | 0hPa | 0V | 00:00:00 | 00:00:00 | 00:00:00 | |
| RDZBGO | 2026-08-31 13:45:10 | 42.18247 | 9.89789 | 99° | 66km/h | 7308m | -3.2m/s | 0°C | 0% | 0hPa | 0V | 00:00:00 | 00:00:00 | 00:00:00 | |
| RDZBGO | 2026-08-31 13:44:21 | 42.18347 | 9.88647 | 100° | 71km/h | 7480m | -3.3m/s | 0°C | 0% | 0hPa | 0V | 00:00:00 | 00:00:00 | 00:00:00 | |
| RDZBGO | 2026-08-31 13:44:01 | 42.18383 | 9.88171 | 95° | 68km/h | 7558m | -2.2m/s | 0°C | 0% | 0hPa | 0V | 00:00:00 | 00:00:00 | 00:00:00 | |
| RDZBGO | 2026-08-31 13:43:40 | 42.18395 | 9.87665 | 90° | 75km/h | 7631m | -3.7m/s | 0°C | 0% | 0hPa | 0V | 00:00:00 | 00:00:00 | 00:00:00 | |
| RDZBGO | 2026-08-31 13:43:19 | 42.18378 | 9.87147 | 83° | 73km/h | 7707m | -2.5m/s | 0°C | 0% | 0hPa | 0V | 00:00:00 | 00:00:00 | 00:00:00 | |
| RDZBGO | 2026-08-31 13:42:59 | 42.18349 | 9.86660 | 86° | 71km/h | 7782m | -2.8m/s | 0°C | 0% | 0hPa | 0V | 00:00:00 | 00:00:00 | 00:00:00 | |
| RDZBGO | 2026-08-31 13:42:38 | 42.18311 | 9.86156 | 85° | 69km/h | 7860m | -3.4m/s | 0°C | 0% | 0hPa | 0V | 00:00:00 | 00:00:00 | 00:00:00 | |
| RDZBGO | 2026-08-31 13:42:18 | 42.18276 | 9.85677 | 84° | 69km/h | 7934m | -2.8m/s | 0°C | 0% | 0hPa | 0V | 00:00:00 | 00:00:00 | 00:00:00 | |
| RDZBGO | 2026-08-31 13:41:58 | 42.18220 | 9.85204 | 81° | 73km/h | 8010m | -4.5m/s | 0°C | 0% | 0hPa | 0V | 00:00:00 | 00:00:00 | 00:00:00 | |
| RDZBGO | 2026-08-31 13:41:38 | 42.18159 | 9.84716 | 81° | 75km/h | 8088m | -4.3m/s | 0°C | 0% | 0hPa | 0V | 00:00:00 | 00:00:00 | 00:00:00 | |
| RDZBGO | 2026-08-31 13:41:17 | 42.18112 | 9.84176 | 87° | 77km/h | 8174m | -3.6m/s | 0°C | 0% | 0hPa | 0V | 00:00:00 | 00:00:00 | 00:00:00 | |
| RDZBGO | 2026-08-31 13:40:57 | 42.18058 | 9.83629 | 80° | 84km/h | 8264m | -5.5m/s | 0°C | 0% | 0hPa | 0V | 00:00:00 | 00:00:00 | 00:00:00 | |
| RDZBGO | 2026-08-31 13:40:37 | 42.17984 | 9.83060 | 80° | 86km/h | 8347m | -3.0m/s | 0°C | 0% | 0hPa | 0V | 00:00:00 | 00:00:00 | 00:00:00 | |
| RDZBGO | 2026-08-31 13:40:16 | 42.17888 | 9.82466 | 77° | 86km/h | 8439m | -4.5m/s | 0°C | 0% | 0hPa | 0V | 00:00:00 | 00:00:00 | 00:00:00 | |
| RDZBGO | 2026-08-31 13:39:55 | 42.17768 | 9.81883 | 74° | 84km/h | 8536m | -4.0m/s | 0°C | 0% | 0hPa | 0V | 00:00:00 | 00:00:00 | 00:00:00 | |
| RDZBGO | 2026-08-31 13:39:35 | 42.17629 | 9.81352 | 68° | 82km/h | 8627m | -4.6m/s | 0°C | 0% | 0hPa | 0V | 00:00:00 | 00:00:00 | 00:00:00 | |
| RDZBGO | 2026-08-31 13:39:15 | 42.17476 | 9.80843 | 67° | 80km/h | 8720m | -4.7m/s | 0°C | 0% | 0hPa | 0V | 00:00:00 | 00:00:00 | 00:00:00 | |
| RDZBGO | 2026-08-31 13:38:53 | 42.17316 | 9.80292 | 71° | 77km/h | 8825m | -4.0m/s | 0°C | 0% | 0hPa | 0V | 00:00:00 | 00:00:00 | 00:00:00 | |
| RDZBGO | 2026-08-31 13:38:32 | 42.17168 | 9.79764 | 69° | 78km/h | 8925m | -4.2m/s | 0°C | 0% | 0hPa | 0V | 00:00:00 | 00:00:00 | 00:00:00 | |
| RDZBGO | 2026-08-31 13:38:11 | 42.17024 | 9.79234 | 72° | 77km/h | 9021m | -5.2m/s | 0°C | 0% | 0hPa | 0V | 00:00:00 | 00:00:00 | 00:00:00 | |
| RDZBGO | 2026-08-31 13:37:50 | 42.16884 | 9.78706 | 73° | 77km/h | 9128m | -3.6m/s | 0°C | 0% | 0hPa | 0V | 00:00:00 | 00:00:00 | 00:00:00 | |
| RDZBGO | 2026-08-31 13:37:29 | 42.16760 | 9.78178 | 76° | 77km/h | 9227m | -4.4m/s | 0°C | 0% | 0hPa | 0V | 00:00:00 | 00:00:00 | 00:00:00 | |
| RDZBGO | 2026-08-31 13:37:08 | 42.16635 | 9.77652 | 73° | 77km/h | 9331m | -4.1m/s | 0°C | 0% | 0hPa | 0V | 00:00:00 | 00:00:00 | 00:00:00 | |
| RDZBGO | 2026-08-31 13:36:27 | 42.16383 | 9.76631 | 72° | 77km/h | 9537m | -4.3m/s | 0°C | 0% | 0hPa | 0V | 00:00:00 | 00:00:00 | 00:00:00 | |
| RDZBGO | 2026-08-31 13:36:05 | 42.16241 | 9.76080 | 69° | 78km/h | 9636m | -4.6m/s | 0°C | 0% | 0hPa | 0V | 00:00:00 | 00:00:00 | 00:00:00 | |
| RDZBGO | 2026-08-31 13:35:45 | 42.16125 | 9.75568 | 75° | 80km/h | 9728m | -5.4m/s | 0°C | 0% | 0hPa | 0V | 00:00:00 | 00:00:00 | 00:00:00 | |
| RDZBGO | 2026-08-31 13:35:24 | 42.15998 | 9.75026 | 74° | 80km/h | 9835m | -4.3m/s | 0°C | 0% | 0hPa | 0V | 00:00:00 | 00:00:00 | 00:00:00 | |
| RDZBGO | 2026-08-31 13:35:03 | 42.15866 | 9.74475 | 71° | 80km/h | 9934m | -4.7m/s | 0°C | 0% | 0hPa | 0V | 00:00:00 | 00:00:00 | 00:00:00 | |
| RDZBGO | 2026-08-31 13:34:42 | 42.15730 | 9.73940 | 73° | 80km/h | 10032m | -4.3m/s | 0°C | 0% | 0hPa | 0V | 00:00:00 | 00:00:00 | 00:00:00 | |
| RDZBGO | 2026-08-31 13:34:21 | 42.15586 | 9.73409 | 71° | 77km/h | 10136m | -4.7m/s | 0°C | 0% | 0hPa | 0V | 00:00:00 | 00:00:00 | 00:00:00 | |
| RDZBGO | 2026-08-31 13:34:01 | 42.15458 | 9.72907 | 71° | 80km/h | 10227m | -5.2m/s | 0°C | 0% | 0hPa | 0V | 00:00:00 | 00:00:00 | 00:00:00 | |
| RDZBGO | 2026-08-31 13:33:40 | 42.15300 | 9.72390 | 70° | 77km/h | 10337m | -4.2m/s | 0°C | 0% | 0hPa | 0V | 00:00:00 | 00:00:00 | 00:00:00 | |
| RDZBGO | 2026-08-31 13:33:19 | 42.15169 | 9.71862 | 74° | 80km/h | 10430m | -4.5m/s | 0°C | 0% | 0hPa | 0V | 00:00:00 | 00:00:00 | 00:00:00 | |
| RDZBGO | 2026-08-31 13:32:59 | 42.15054 | 9.71329 | 72° | 84km/h | 10524m | -5.2m/s | 0°C | 0% | 0hPa | 0V | 00:00:00 | 00:00:00 | 00:00:00 | |
| RDZBGO | 2026-08-31 13:32:38 | 42.14915 | 9.70749 | 70° | 88km/h | 10624m | -5.8m/s | 0°C | 0% | 0hPa | 0V | 00:00:00 | 00:00:00 | 00:00:00 | |
| RDZBGO | 2026-08-31 13:32:18 | 42.14756 | 9.70209 | 67° | 86km/h | 10729m | -4.6m/s | 0°C | 0% | 0hPa | 0V | 00:00:00 | 00:00:00 | 00:00:00 | |
| RDZBGO | 2026-08-31 13:31:57 | 42.14592 | 9.69632 | 73° | 86km/h | 10842m | -3.9m/s | 0°C | 0% | 0hPa | 0V | 00:00:00 | 00:00:00 | 00:00:00 | |
| RDZBGO | 2026-08-31 13:31:00 | 42.14187 | 9.68021 | 71° | 91km/h | 11131m | -5.6m/s | 0°C | 0% | 0hPa | 0V | 00:00:00 | 00:00:00 | 00:00:00 | |
| RDZBGO | 2026-08-31 13:30:40 | 42.14021 | 9.67438 | 70° | 93km/h | 11236m | -3.5m/s | 0°C | 0% | 0hPa | 0V | 00:00:00 | 00:00:00 | 00:00:00 | |
| RDZBGO | 2026-08-31 13:30:19 | 42.13845 | 9.66796 | 72° | 95km/h | 11350m | -5.0m/s | 0°C | 0% | 0hPa | 0V | 00:00:00 | 00:00:00 | 00:00:00 | |
| RDZBGO | 2026-08-31 13:29:59 | 42.13690 | 9.66170 | 74° | 97km/h | 11458m | -4.6m/s | 0°C | 0% | 0hPa | 0V | 00:00:00 | 00:00:00 | 00:00:00 | |
| RDZBGO | 2026-08-31 13:29:38 | 42.13540 | 9.65499 | 75° | 99km/h | 11571m | -4.0m/s | 0°C | 0% | 0hPa | 0V | 00:00:00 | 00:00:00 | 00:00:00 | |
| RDZBGO | 2026-08-31 13:29:18 | 42.13401 | 9.64851 | 75° | 99km/h | 11684m | -6.0m/s | 0°C | 0% | 0hPa | 0V | 00:00:00 | 00:00:00 | 00:00:00 | |
| RDZBGO | 2026-08-31 13:28:58 | 42.13263 | 9.64201 | 77° | 97km/h | 11795m | -4.5m/s | 0°C | 0% | 0hPa | 0V | 00:00:00 | 00:00:00 | 00:00:00 | |
| RDZBGO | 2026-08-31 13:28:37 | 42.13132 | 9.63503 | 76° | 102km/h | 11917m | -6.6m/s | 0°C | 0% | 0hPa | 0V | 00:00:00 | 00:00:00 | 00:00:00 | |
| RDZBGO | 2026-08-31 13:28:17 | 42.13006 | 9.62838 | 76° | 102km/h | 12036m | -6.2m/s | 0°C | 0% | 0hPa | 0V | 00:00:00 | 00:00:00 | 00:00:00 | |
| RDZBGO | 2026-08-31 13:27:56 | 42.12873 | 9.62142 | 78° | 100km/h | 12158m | -5.6m/s | 0°C | 0% | 0hPa | 0V | 00:00:00 | 00:00:00 | 00:00:00 | |
| RDZBGO | 2026-08-31 13:27:36 | 42.12744 | 9.61482 | 77° | 100km/h | 12284m | -7.0m/s | 0°C | 0% | 0hPa | 0V | 00:00:00 | 00:00:00 | 00:00:00 | |
| RDZBGO | 2026-08-31 13:27:16 | 42.12638 | 9.60815 | 79° | 100km/h | 12411m | -6.4m/s | 0°C | 0% | 0hPa | 0V | 00:00:00 | 00:00:00 | 00:00:00 | |
| RDZBGO | 2026-08-31 13:26:56 | 42.12534 | 9.60141 | 81° | 100km/h | 12536m | -5.7m/s | 0°C | 0% | 0hPa | 0V | 00:00:00 | 00:00:00 | 00:00:00 | |
| RDZBGO | 2026-08-31 13:26:35 | 42.12414 | 9.59428 | 77° | 100km/h | 12678m | -5.2m/s | 0°C | 0% | 0hPa | 0V | 00:00:00 | 00:00:00 | 00:00:00 | |
| RDZBGO | 2026-08-31 13:26:15 | 42.12286 | 9.58762 | 76° | 100km/h | 12804m | -5.9m/s | 0°C | 0% | 0hPa | 0V | 00:00:00 | 00:00:00 | 00:00:00 | |
| RDZBGO | 2026-08-31 13:25:55 | 42.12150 | 9.58099 | 78° | 104km/h | 12942m | -6.2m/s | 0°C | 0% | 0hPa | 0V | 00:00:00 | 00:00:00 | 00:00:00 | |
| RDZBGO | 2026-08-31 13:25:34 | 42.12039 | 9.57384 | 80° | 100km/h | 13077m | -6.1m/s | 0°C | 0% | 0hPa | 0V | 00:00:00 | 00:00:00 | 00:00:00 | |
| RDZBGO | 2026-08-31 13:25:14 | 42.11916 | 9.56732 | 75° | 99km/h | 13216m | -6.4m/s | 0°C | 0% | 0hPa | 0V | 00:00:00 | 00:00:00 | 00:00:00 | |
| RDZBGO | 2026-08-31 13:24:53 | 42.11766 | 9.56064 | 73° | 95km/h | 13362m | -7.0m/s | 0°C | 0% | 0hPa | 0V | 00:00:00 | 00:00:00 | 00:00:00 | |
| RDZBGO | 2026-08-31 13:24:27 | 42.11609 | 9.55198 | 79° | 95km/h | 13558m | -6.3m/s | 0°C | 0% | 0hPa | 0V | 00:00:00 | 00:00:00 | 00:00:00 | |
| RDZBGO | 2026-08-31 13:24:05 | 42.11518 | 9.54543 | 82° | 91km/h | 13706m | -7.1m/s | 0°C | 0% | 0hPa | 0V | 00:00:00 | 00:00:00 | 00:00:00 | |
| RDZBGO | 2026-08-31 13:23:43 | 42.11451 | 9.53865 | 85° | 88km/h | 13870m | -7.2m/s | 0°C | 0% | 0hPa | 0V | 00:00:00 | 00:00:00 | 00:00:00 | |
| RDZBGO | 2026-08-31 13:23:21 | 42.11379 | 9.53210 | 81° | 88km/h | 14034m | -6.5m/s | 0°C | 0% | 0hPa | 0V | 00:00:00 | 00:00:00 | 00:00:00 | |
| RDZBGO | 2026-08-31 13:22:04 | 42.11010 | 9.51047 | 85° | 86km/h | 14661m | -8.8m/s | 0°C | 0% | 0hPa | 0V | 00:00:00 | 00:00:00 | 00:00:00 | |
| RDZBGO | 2026-08-31 13:21:43 | 42.10993 | 9.50490 | 92° | 75km/h | 14840m | -7.7m/s | 0°C | 0% | 0hPa | 0V | 00:00:00 | 00:00:00 | 00:00:00 | |
| RDZBGO | 2026-08-31 13:21:23 | 42.10984 | 9.50022 | 82° | 62km/h | 15012m | -8.2m/s | 0°C | 0% | 0hPa | 0V | 00:00:00 | 00:00:00 | 00:00:00 | |
| RDZBGO | 2026-08-31 13:21:01 | 42.10896 | 9.49545 | 78° | 71km/h | 15207m | -7.9m/s | 0°C | 0% | 0hPa | 0V | 00:00:00 | 00:00:00 | 00:00:00 | |
| RDZBGO | 2026-08-31 13:20:25 | 42.10799 | 9.48588 | 91° | 80km/h | 15528m | -7.3m/s | !°C | 0% | 0hPa | 0V | 00:00:00 | 00:00:00 | 00:00:00 | |
| RDZBGO | 2026-08-31 13:20:04 | 42.10818 | 9.48107 | 98° | 49km/h | 15713m | -8.5m/s | 0°C | 0% | 0hPa | 0V | 00:00:00 | 00:00:00 | 00:00:00 | |
| RDZBGO | 2026-08-31 13:19:42 | 42.10817 | 9.47814 | 70° | 31km/h | 15919m | -9.3m/s | 0°C | 0% | 0hPa | 0V | 00:00:00 | 00:00:00 | 00:00:00 | |
| RDZBGO | 2026-08-31 13:19:18 | 42.10716 | 9.47525 | 58° | 44km/h | 16150m | -9.2m/s | 0°C | 0% | 0hPa | 0V | 00:00:00 | 00:00:00 | 00:00:00 | |
| RDZBGO | 2026-08-31 13:18:56 | 42.10579 | 9.47225 | 57° | 51km/h | 16385m | -9.3m/s | 0°C | 0% | 0hPa | 0V | 00:00:00 | 00:00:00 | 00:00:00 | |
| RDZBGO | 2026-08-31 13:18:34 | 42.10429 | 9.46935 | 50° | 44km/h | 16609m | -9.8m/s | 0°C | 0% | 0hPa | 0V | 00:00:00 | 00:00:00 | 00:00:00 | |
| RDZBGO | 2026-08-31 13:18:12 | 42.10318 | 9.46642 | 69° | 42km/h | 16840m | -9.3m/s | 0°C | 0% | 0hPa | 0V | 00:00:00 | 00:00:00 | 00:00:00 | |
| RDZBGO | 2026-08-31 13:17:51 | 42.10286 | 9.46392 | 96° | 35km/h | 17055m | -9.4m/s | 0°C | 0% | 0hPa | 0V | 00:00:00 | 00:00:00 | 00:00:00 | |
| RDZBGO | 2026-08-31 13:17:29 | 42.10307 | 9.46142 | 80° | 27km/h | 17282m | -8.6m/s | 0°C | 0% | 0hPa | 0V | 00:00:00 | 00:00:00 | 00:00:00 | |
| RDZBGO | 2026-08-31 13:17:05 | 42.10236 | 9.45955 | 50° | 29km/h | 17548m | -11.1m/s | 0°C | 0% | 0hPa | 0V | 00:00:00 | 00:00:00 | 00:00:00 | |
| RDZBGO | 2026-08-31 13:16:42 | 42.10165 | 9.45721 | 65° | 38km/h | 17801m | -10.7m/s | 0°C | 0% | 0hPa | 0V | 00:00:00 | 00:00:00 | 00:00:00 | |
| RDZBGO | 2026-08-31 13:16:21 | 42.10139 | 9.45477 | 87° | 29km/h | 18049m | -10.5m/s | 0°C | 0% | 0hPa | 0V | 00:00:00 | 00:00:00 | 00:00:00 | |
| RDZBGO | 2026-08-31 13:16:00 | 42.10115 | 9.45308 | 75° | 22km/h | 18298m | -11.2m/s | 0°C | 0% | 0hPa | 0V | 00:00:00 | 00:00:00 | 00:00:00 | |
| RDZBGO | 2026-08-31 13:15:39 | 42.10024 | 9.45213 | 33° | 24km/h | 18553m | -12.2m/s | 0°C | 0% | 0hPa | 0V | 00:00:00 | 00:00:00 | 00:00:00 | |
| RDZBGO | 2026-08-31 13:15:19 | 42.09956 | 9.45087 | 68° | 16km/h | 18799m | -11.7m/s | 0°C | 0% | 0hPa | 0V | 00:00:00 | 00:00:00 | 00:00:00 | |
| RDZBGO | 2026-08-31 13:14:58 | 42.09923 | 9.45023 | 346° | 16km/h | 19061m | -11.4m/s | 0°C | 0% | 0hPa | 0V | 00:00:00 | 00:00:00 | 00:00:00 | |
| RDZBGO | 2026-08-31 13:14:38 | 42.09777 | 9.45022 | 10° | 40km/h | 19322m | -13.0m/s | 0°C | 0% | 0hPa | 0V | 00:00:00 | 00:00:00 | 00:00:00 | |
| RDZBGO | 2026-08-31 13:14:17 | 42.09631 | 9.44923 | 19° | 20km/h | 19600m | -11.8m/s | 0°C | 0% | 0hPa | 0V | 00:00:00 | 00:00:00 | 00:00:00 | |
| RDZBGO | 2026-08-31 13:13:54 | 42.09520 | 9.44866 | 357° | 15km/h | 19913m | -12.5m/s | 0°C | 0% | 0hPa | 0V | 00:00:00 | 00:00:00 | 00:00:00 | |
| RDZBGO | 2026-08-31 13:13:31 | 42.09390 | 9.44810 | 38° | 31km/h | 20234m | -12.6m/s | 0°C | 0% | 0hPa | 0V | 00:00:00 | 00:00:00 | 00:00:00 | |
| RDZBGO | 2026-08-31 13:13:11 | 42.09323 | 9.44738 | 11° | 7km/h | 20528m | -13.0m/s | 0°C | 0% | 0hPa | 0V | 00:00:00 | 00:00:00 | 00:00:00 | |
| RDZBGO | 2026-08-31 13:12:50 | 42.09233 | 9.44719 | 39° | 18km/h | 20840m | -13.8m/s | 0°C | 0% | 0hPa | 0V | 00:00:00 | 00:00:00 | 00:00:00 | |
| RDZBGO | 2026-08-31 13:12:30 | 42.09187 | 9.44598 | 60° | 13km/h | 21146m | -14.8m/s | 0°C | 0% | 0hPa | 0V | 00:00:00 | 00:00:00 | 00:00:00 | |
| RDZBGO | 2026-08-31 13:12:10 | 42.09188 | 9.44589 | 250° | 13km/h | 21466m | -15.1m/s | 0°C | 0% | 0hPa | 0V | 00:00:00 | 00:00:00 | 00:00:00 | |
| RDZBGO | 2026-08-31 13:11:46 | 42.09155 | 9.44815 | 309° | 37km/h | 21860m | -15.9m/s | 0°C | 0% | 0hPa | 0V | 00:00:00 | 00:00:00 | 00:00:00 | |
| RDZBGO | 2026-08-31 13:11:22 | 42.08984 | 9.44916 | 20° | 18km/h | 22274m | -17.0m/s | 0°C | 0% | 0hPa | 0V | 00:00:00 | 00:00:00 | 00:00:00 | |
| RDZBGO | 2026-08-31 13:11:02 | 42.08879 | 9.44910 | 60° | 13km/h | 22626m | -16.7m/s | 0°C | 0% | 0hPa | 0V | 00:00:00 | 00:00:00 | 00:00:00 | |
| RDZBGO | 2026-08-31 13:10:39 | 42.08881 | 9.44872 | 158° | 7km/h | 23044m | -17.4m/s | 0°C | 0% | 0hPa | 0V | 00:00:00 | 00:00:00 | 00:00:00 | |
| RDZBGO | 2026-08-31 13:10:17 | 42.08850 | 9.44907 | 354° | 27km/h | 23460m | -18.3m/s | 0°C | 0% | 0hPa | 0V | 00:00:00 | 00:00:00 | 00:00:00 | |
| RDZBGO | 2026-08-31 13:09:53 | 42.08756 | 9.44860 | 183° | 4km/h | 23930m | -19.9m/s | 0°C | 0% | 0hPa | 0V | 00:00:00 | 00:00:00 | 00:00:00 | |
| RDZBGO | 2026-08-31 13:09:31 | 42.08736 | 9.44883 | 26° | 11km/h | 24393m | -20.5m/s | 0°C | 0% | 0hPa | 0V | 00:00:00 | 00:00:00 | 00:00:00 | |
| RDZBGO | 2026-08-31 13:09:08 | 42.08709 | 9.44840 | 17° | 9km/h | 24891m | -20.5m/s | 0°C | 0% | 0hPa | 0V | 00:00:00 | 00:00:00 | 00:00:00 | |
| RDZBGO | 2026-08-31 13:08:46 | 42.08703 | 9.44835 | 52° | 7km/h | 25393m | -22.8m/s | 0°C | 0% | 0hPa | 0V | 00:00:00 | 00:00:00 | 00:00:00 | |
| RDZBGO | 2026-08-31 13:08:25 | 42.08706 | 9.44833 | 278° | 15km/h | 25896m | -23.5m/s | 0°C | 0% | 0hPa | 0V | 00:00:00 | 00:00:00 | 00:00:00 | |
| RDZBGO | 2026-08-31 13:08:05 | 42.08704 | 9.44858 | 335° | 5km/h | 26387m | -24.8m/s | 0°C | 0% | 0hPa | 0V | 00:00:00 | 00:00:00 | 00:00:00 | |
| RDZBGO | 2026-08-31 13:07:40 | 42.08727 | 9.44842 | 240° | 2km/h | 27055m | -25.9m/s | 0°C | 0% | 0hPa | 0V | 00:00:00 | 00:00:00 | 00:00:00 | |
| RDZBGO | 2026-08-31 13:07:20 | 42.08696 | 9.44839 | 52° | 15km/h | 27618m | -27.9m/s | 0°C | 0% | 0hPa | 0V | 00:00:00 | 00:00:00 | 00:00:00 | |
| RDZBGO | 2026-08-31 13:06:56 | 42.08646 | 9.44823 | 97° | 16km/h | 28338m | -30.5m/s | 0°C | 0% | 0hPa | 0V | 00:00:00 | 00:00:00 | 00:00:00 | |
| RDZBGO | 2026-08-31 13:06:34 | 42.08603 | 9.44743 | 74° | 16km/h | 29040m | -32.9m/s | 0°C | 0% | 0hPa | 0V | 00:00:00 | 00:00:00 | 00:00:00 | |
| RDZBGO | 2026-08-31 13:06:11 | 42.08612 | 9.44726 | 263° | 11km/h | 29815m | -31.7m/s | 0°C | 0% | 0hPa | 0V | 00:00:00 | 00:00:00 | 00:00:00 | |
| RDZBGO | 2026-08-31 13:05:49 | 42.08606 | 9.44925 | 282° | 16km/h | 30572m | -34.7m/s | 0°C | 0% | 0hPa | 0V | 00:00:00 | 00:00:00 | 00:00:00 | |
| RDZBGO | 2026-08-31 13:05:29 | 42.08622 | 9.45053 | 282° | 38km/h | 31314m | -37.2m/s | 0°C | 0% | 0hPa | 0V | 00:00:00 | 00:00:00 | 00:00:00 | |
| RDZBGO | 2026-08-31 13:05:07 | 42.08483 | 9.45248 | 334° | 31km/h | 32170m | -35.1m/s | 0°C | 0% | 0hPa | 0V | 00:00:00 | 00:00:00 | 00:00:00 | |
| RDZBGO | 2026-08-31 13:04:45 | 42.08389 | 9.45297 | 326° | 20km/h | 32928m | -34.3m/s | 0°C | 0% | 0hPa | 0V | 00:00:00 | 00:00:00 | 00:00:00 | |
| RDZBGO | 2026-08-31 13:04:25 | 42.08297 | 9.45381 | 328° | 31km/h | 33651m | -34.6m/s | 0°C | 0% | 0hPa | 0V | 00:00:00 | 00:00:00 | 00:00:00 | |
| RDZBGO | 2026-08-31 13:04:03 | 42.08138 | 9.45527 | 298° | 15km/h | 34133m | 5.3m/s | 0°C | 0% | 0hPa | 0V | 00:00:00 | 00:00:00 | 00:00:00 | |
| RDZBGO | 2026-08-31 13:03:42 | 42.07991 | 9.45648 | 322° | 33km/h | 34005m | 5.6m/s | 0°C | 0% | 0hPa | 0V | 00:00:00 | 00:00:00 | 00:00:00 | |
| RDZBGO | 2026-08-31 13:03:22 | 42.07817 | 9.45845 | 251° | 31km/h | 33895m | 2.5m/s | 0°C | 0% | 0hPa | 0V | 00:00:00 | 00:00:00 | 00:00:00 | |
| RDZBGO | 2026-08-31 13:03:01 | 42.07612 | 9.46082 | 339° | 33km/h | 33783m | 3.8m/s | 0°C | 0% | 0hPa | 0V | 00:00:00 | 00:00:00 | 00:00:00 | |
| RDZBGO | 2026-08-31 13:02:41 | 42.07438 | 9.46286 | 14° | 37km/h | 33680m | 2.0m/s | 0°C | 0% | 0hPa | 0V | 00:00:00 | 00:00:00 | 00:00:00 | |
| RDZBGO | 2026-08-31 13:02:21 | 42.07360 | 9.46403 | 261° | 47km/h | 33559m | -7.2m/s | 0°C | 0% | 0hPa | 0V | 00:00:00 | 00:00:00 | 00:00:00 | |
| RDZBGO | 2026-08-31 13:02:01 | 42.07316 | 9.46490 | 305° | 64km/h | 33449m | 4.1m/s | 0°C | 0% | 0hPa | 0V | 00:00:00 | 00:00:00 | 00:00:00 | |
| RDZBGO | 2026-08-31 13:01:40 | 42.07291 | 9.46602 | 233° | 51km/h | 33326m | 7.3m/s | 0°C | 0% | 0hPa | 0V | 00:00:00 | 00:00:00 | 00:00:00 | |
| RDZBGO | 2026-08-31 13:01:20 | 42.07242 | 9.46686 | 7° | 24km/h | 33203m | 9.3m/s | 0°C | 0% | 0hPa | 0V | 00:00:00 | 00:00:00 | 00:00:00 | |
| RDZBGO | 2026-08-31 13:00:58 | 42.07086 | 9.46867 | 283° | 62km/h | 33054m | 7.5m/s | 0°C | 0% | 0hPa | 0V | 00:00:00 | 00:00:00 | 00:00:00 | |
| RDZBGO | 2026-08-31 13:00:37 | 42.06994 | 9.46955 | 25° | 22km/h | 32925m | 10.3m/s | 0°C | 0% | 0hPa | 0V | 00:00:00 | 00:00:00 | 00:00:00 | |
| RDZBGO | 2026-08-31 13:00:18 | 42.06917 | 9.47037 | 359° | 53km/h | 32782m | 9.8m/s | 0°C | 0% | 0hPa | 0V | 00:00:00 | 00:00:00 | 00:00:00 | |
| RDZBGO | 2026-08-31 12:59:56 | 42.06800 | 9.47137 | 251° | 44km/h | 32650m | 10.6m/s | 0°C | 0% | 0hPa | 0V | 00:00:00 | 00:00:00 | 00:00:00 | |
| RDZBGO | 2026-08-31 12:59:36 | 42.06686 | 9.47192 | 56° | 31km/h | 32524m | 9.2m/s | 0°C | 0% | 0hPa | 0V | 00:00:00 | 00:00:00 | 00:00:00 | |
| RDZBGO | 2026-08-31 12:59:16 | 42.06514 | 9.47241 | 333° | 53km/h | 32405m | -0.5m/s | 0°C | 0% | 0hPa | 0V | 00:00:00 | 00:00:00 | 00:00:00 | |
| RDZBGO | 2026-08-31 12:58:55 | 42.06360 | 9.47338 | 280° | 40km/h | 32265m | 5.5m/s | 0°C | 0% | 0hPa | 0V | 00:00:00 | 00:00:00 | 00:00:00 | |
| RDZBGO | 2026-08-31 12:58:34 | 42.06232 | 9.47437 | 36° | 62km/h | 32141m | 2.2m/s | 0°C | 0% | 0hPa | 0V | 00:00:00 | 00:00:00 | 00:00:00 | |
| RDZBGO | 2026-08-31 12:58:13 | 42.06099 | 9.47614 | 320° | 57km/h | 32027m | 8.6m/s | 0°C | 0% | 0hPa | 0V | 00:00:00 | 00:00:00 | 00:00:00 | |
| RDZBGO | 2026-08-31 12:57:52 | 42.05977 | 9.47808 | 240° | 18km/h | 31913m | 11.0m/s | 0°C | 0% | 0hPa | 0V | 00:00:00 | 00:00:00 | 00:00:00 | |
| RDZBGO | 2026-08-31 12:57:32 | 42.05839 | 9.47961 | 15° | 31km/h | 31796m | 2.4m/s | 0°C | 0% | 0hPa | 0V | 00:00:00 | 00:00:00 | 00:00:00 | |
| RDZBGO | 2026-08-31 12:57:11 | 42.05655 | 9.48239 | 293° | 77km/h | 31681m | 1.7m/s | 0°C | 0% | 0hPa | 0V | 00:00:00 | 00:00:00 | 00:00:00 | |
| RDZBGO | 2026-08-31 12:56:51 | 42.05593 | 9.48514 | 293° | 5km/h | 31558m | -1.7m/s | 0°C | 0% | 0hPa | 0V | 00:00:00 | 00:00:00 | 00:00:00 | |
| RDZBGO | 2026-08-31 12:56:30 | 42.05568 | 9.48773 | 298° | 40km/h | 31433m | 9.8m/s | 0°C | 0% | 0hPa | 0V | 00:00:00 | 00:00:00 | 00:00:00 | |
| RDZBGO | 2026-08-31 12:56:09 | 42.05553 | 9.49003 | 247° | 58km/h | 31303m | 10.6m/s | 0°C | 0% | 0hPa | 0V | 00:00:00 | 00:00:00 | 00:00:00 | |
| RDZBGO | 2026-08-31 12:55:49 | 42.05614 | 9.49145 | 147° | 24km/h | 31172m | 8.4m/s | 0°C | 0% | 0hPa | 0V | 00:00:00 | 00:00:00 | 00:00:00 | |
| RDZBGO | 2026-08-31 12:55:29 | 42.05655 | 9.49234 | 293° | 49km/h | 31041m | 7.4m/s | 0°C | 0% | 0hPa | 0V | 00:00:00 | 00:00:00 | 00:00:00 | |
| RDZBGO | 2026-08-31 12:55:08 | 42.05704 | 9.49319 | 161° | 18km/h | 30906m | 5.7m/s | 0°C | 0% | 0hPa | 0V | 00:00:00 | 00:00:00 | 00:00:00 | |
| RDZBGO | 2026-08-31 12:54:48 | 42.05721 | 9.49340 | 76° | 31km/h | 30775m | 6.9m/s | 0°C | 0% | 0hPa | 0V | 00:00:00 | 00:00:00 | 00:00:00 | |
| RDZBGO | 2026-08-31 12:54:28 | 42.05689 | 9.49434 | 237° | 64km/h | 30667m | 1.4m/s | 0°C | 0% | 0hPa | 0V | 00:00:00 | 00:00:00 | 00:00:00 | |
| RDZBGO | 2026-08-31 12:54:07 | 42.05678 | 9.49597 | 268° | 73km/h | 30531m | 11.8m/s | 0°C | 0% | 0hPa | 0V | 00:00:00 | 00:00:00 | 00:00:00 | |
| RDZBGO | 2026-08-31 12:53:46 | 42.05710 | 9.49840 | 207° | 44km/h | 30409m | 7.5m/s | 0°C | 0% | 0hPa | 0V | 00:00:00 | 00:00:00 | 00:00:00 | |
| RDZBGO | 2026-08-31 12:53:26 | 42.05742 | 9.50036 | 329° | 66km/h | 30295m | 7.5m/s | 0°C | 0% | 0hPa | 0V | 00:00:00 | 00:00:00 | 00:00:00 | |
| RDZBGO | 2026-08-31 12:53:06 | 42.05753 | 9.50265 | 193° | 49km/h | 30176m | 5.6m/s | 0°C | 0% | 0hPa | 0V | 00:00:00 | 00:00:00 | 00:00:00 | |
| RDZBGO | 2026-08-31 12:52:44 | 42.05806 | 9.50456 | 197° | 75km/h | 30050m | 6.1m/s | 0°C | 0% | 0hPa | 0V | 00:00:00 | 00:00:00 | 00:00:00 | |
| RDZBGO | 2026-08-31 12:52:01 | 42.05941 | 9.50632 | 358° | 27km/h | 29791m | 1.1m/s | 0°C | 0% | 0hPa | 0V | 00:00:00 | 00:00:00 | 00:00:00 | |
| RDZBGO | 2026-08-31 12:51:41 | 42.05956 | 9.50630 | 264° | 46km/h | 29671m | 8.0m/s | 0°C | 0% | 0hPa | 0V | 00:00:00 | 00:00:00 | 00:00:00 | |
| RDZBGO | 2026-08-31 12:51:20 | 42.05973 | 9.50575 | 360° | 35km/h | 29544m | 2.9m/s | 0°C | 0% | 0hPa | 0V | 00:00:00 | 00:00:00 | 00:00:00 | |
| RDZBGO | 2026-08-31 12:50:59 | 42.05999 | 9.50629 | 174° | 47km/h | 29417m | 2.6m/s | 0°C | 0% | 0hPa | 0V | 00:00:00 | 00:00:00 | 00:00:00 | |
| RDZBGO | 2026-08-31 12:50:39 | 42.06018 | 9.50570 | 342° | 35km/h | 29295m | 7.4m/s | 0°C | 0% | 0hPa | 0V | 00:00:00 | 00:00:00 | 00:00:00 | |
| RDZBGO | 2026-08-31 12:50:19 | 42.06034 | 9.50481 | 88° | 75km/h | 29172m | 3.5m/s | 0°C | 0% | 0hPa | 0V | 00:00:00 | 00:00:00 | 00:00:00 | |
| RDZBGO | 2026-08-31 12:49:59 | 42.05967 | 9.50386 | 182° | 31km/h | 29060m | 4.1m/s | 0°C | 0% | 0hPa | 0V | 00:00:00 | 00:00:00 | 00:00:00 | |
| RDZBGO | 2026-08-31 12:49:38 | 42.05870 | 9.50253 | 350° | 49km/h | 28942m | 8.2m/s | 0°C | 0% | 0hPa | 0V | 00:00:00 | 00:00:00 | 00:00:00 | |
| RDZBGO | 2026-08-31 12:49:18 | 42.05807 | 9.50223 | 80° | 60km/h | 28829m | 4.7m/s | 0°C | 0% | 0hPa | 0V | 00:00:00 | 00:00:00 | 00:00:00 | |
| RDZBGO | 2026-08-31 12:48:58 | 42.05770 | 9.50182 | 178° | 42km/h | 28723m | 5.1m/s | 0°C | 0% | 0hPa | 0V | 00:00:00 | 00:00:00 | 00:00:00 | |
| RDZBGO | 2026-08-31 12:48:38 | 42.05780 | 9.50102 | 185° | 46km/h | 28599m | 4.3m/s | 0°C | 0% | 0hPa | 0V | 00:00:00 | 00:00:00 | 00:00:00 | |
| RDZBGO | 2026-08-31 12:48:15 | 42.05780 | 9.49990 | 256° | 35km/h | 28475m | 2.8m/s | 0°C | 0% | 0hPa | 0V | 00:00:00 | 00:00:00 | 00:00:00 | |
| RDZBGO | 2026-08-31 12:47:54 | 42.05748 | 9.49843 | 37° | 55km/h | 28357m | 3.2m/s | 0°C | 0% | 0hPa | 0V | 00:00:00 | 00:00:00 | 00:00:00 | |
| RDZBGO | 2026-08-31 12:47:34 | 42.05640 | 9.49826 | 216° | 33km/h | 28249m | 8.3m/s | 0°C | 0% | 0hPa | 0V | 00:00:00 | 00:00:00 | 00:00:00 | |
| RDZBGO | 2026-08-31 12:47:14 | 42.05547 | 9.49868 | 272° | 62km/h | 28133m | 5.6m/s | 0°C | 0% | 0hPa | 0V | 00:00:00 | 00:00:00 | 00:00:00 | |
| RDZBGO | 2026-08-31 12:46:54 | 42.05501 | 9.49922 | 11° | 51km/h | 28011m | 8.3m/s | 0°C | 0% | 0hPa | 0V | 00:00:00 | 00:00:00 | 00:00:00 | |
| RDZBGO | 2026-08-31 12:46:34 | 42.05470 | 9.49978 | 132° | 40km/h | 27892m | 2.9m/s | 0°C | 0% | 0hPa | 0V | 00:00:00 | 00:00:00 | 00:00:00 | |
| RDZBGO | 2026-08-31 12:46:12 | 42.05375 | 9.49929 | 97° | 53km/h | 27757m | 1.3m/s | 0°C | 0% | 0hPa | 0V | 00:00:00 | 00:00:00 | 00:00:00 | |
| RDZBGO | 2026-08-31 12:45:48 | 42.05253 | 9.49842 | 83° | 58km/h | 27627m | 1.0m/s | 0°C | 0% | 0hPa | 0V | 00:00:00 | 00:00:00 | 00:00:00 | |
| RDZBGO | 2026-08-31 12:45:27 | 42.05125 | 9.49812 | 114° | 35km/h | 27497m | 3.8m/s | 0°C | 0% | 0hPa | 0V | 00:00:00 | 00:00:00 | 00:00:00 | |
| RDZBGO | 2026-08-31 12:45:07 | 42.05003 | 9.49791 | 316° | 57km/h | 27386m | 4.1m/s | 0°C | 0% | 0hPa | 0V | 00:00:00 | 00:00:00 | 00:00:00 | |
| RDZBGO | 2026-08-31 12:44:47 | 42.04968 | 9.49786 | 57° | 53km/h | 27272m | 4.8m/s | 0°C | 0% | 0hPa | 0V | 00:00:00 | 00:00:00 | 00:00:00 | |
| RDZBGO | 2026-08-31 12:44:27 | 42.04921 | 9.49795 | 165° | 31km/h | 27156m | 5.5m/s | 0°C | 0% | 0hPa | 0V | 00:00:00 | 00:00:00 | 00:00:00 | |
| RDZBGO | 2026-08-31 12:44:06 | 42.04878 | 9.49792 | 291° | 53km/h | 27040m | 4.6m/s | 0°C | 0% | 0hPa | 0V | 00:00:00 | 00:00:00 | 00:00:00 | |
| RDZBGO | 2026-08-31 12:43:45 | 42.04871 | 9.49786 | 265° | 40km/h | 26928m | 4.2m/s | 0°C | 0% | 0hPa | 0V | 00:00:00 | 00:00:00 | 00:00:00 | |
| RDZBGO | 2026-08-31 12:43:24 | 42.04929 | 9.49729 | 277° | 46km/h | 26805m | 3.2m/s | 0°C | 0% | 0hPa | 0V | 00:00:00 | 00:00:00 | 00:00:00 | |
| RDZBGO | 2026-08-31 12:43:03 | 42.04985 | 9.49724 | 233° | 49km/h | 26685m | 7.2m/s | 0°C | 0% | 0hPa | 0V | 00:00:00 | 00:00:00 | 00:00:00 | |
| RDZBGO | 2026-08-31 12:42:43 | 42.05001 | 9.49674 | 277° | 46km/h | 26565m | 3.5m/s | 0°C | 0% | 0hPa | 0V | 00:00:00 | 00:00:00 | 00:00:00 | |
| RDZBGO | 2026-08-31 12:42:22 | 42.04966 | 9.49650 | 285° | 51km/h | 26446m | 3.9m/s | 0°C | 0% | 0hPa | 0V | 00:00:00 | 00:00:00 | 00:00:00 | |
| RDZBGO | 2026-08-31 12:42:01 | 42.04910 | 9.49682 | 265° | 51km/h | 26318m | 0.8m/s | 0°C | 0% | 0hPa | 0V | 00:00:00 | 00:00:00 | 00:00:00 | |
| RDZBGO | 2026-08-31 12:41:38 | 42.04905 | 9.49752 | 149° | 44km/h | 26183m | 7.4m/s | 0°C | 0% | 0hPa | 0V | 00:00:00 | 00:00:00 | 00:00:00 | |
| RDZBGO | 2026-08-31 12:41:17 | 42.04883 | 9.49803 | 165° | 31km/h | 26062m | 4.6m/s | 0°C | 0% | 0hPa | 0V | 00:00:00 | 00:00:00 | 00:00:00 | |
| RDZBGO | 2026-08-31 12:40:57 | 42.04866 | 9.49824 | 203° | 46km/h | 25945m | 2.3m/s | 0°C | 0% | 0hPa | 0V | 00:00:00 | 00:00:00 | 00:00:00 | |
| RDZBGO | 2026-08-31 12:40:37 | 42.04841 | 9.49880 | 233° | 60km/h | 25831m | 6.8m/s | 0°C | 0% | 0hPa | 0V | 00:00:00 | 00:00:00 | 00:00:00 | |
| RDZBGO | 2026-08-31 12:40:15 | 42.04842 | 9.49988 | 198° | 53km/h | 25715m | 2.9m/s | 0°C | 0% | 0hPa | 0V | 00:00:00 | 00:00:00 | 00:00:00 | |
| RDZBGO | 2026-08-31 12:39:54 | 42.04826 | 9.50002 | 162° | 44km/h | 25607m | 4.6m/s | 0°C | 0% | 0hPa | 0V | 00:00:00 | 00:00:00 | 00:00:00 | |
| RDZBGO | 2026-08-31 12:39:33 | 42.04796 | 9.49951 | 133° | 42km/h | 25497m | 4.9m/s | 0°C | 0% | 0hPa | 0V | 00:00:00 | 00:00:00 | 00:00:00 | |
| RDZBGO | 2026-08-31 12:39:13 | 42.04732 | 9.49923 | 253° | 40km/h | 25392m | 4.8m/s | 0°C | 0% | 0hPa | 0V | 00:00:00 | 00:00:00 | 00:00:00 | |
| RDZBGO | 2026-08-31 12:38:52 | 42.04699 | 9.49935 | 263° | 51km/h | 25285m | 6.7m/s | 0°C | 0% | 0hPa | 0V | 00:00:00 | 00:00:00 | 00:00:00 | |
| RDZBGO | 2026-08-31 12:38:31 | 42.04703 | 9.49951 | 247° | 33km/h | 25172m | 3.9m/s | 0°C | 0% | 0hPa | 0V | 00:00:00 | 00:00:00 | 00:00:00 | |
| RDZBGO | 2026-08-31 12:38:09 | 42.04669 | 9.49922 | 186° | 37km/h | 25048m | 7.3m/s | 0°C | 0% | 0hPa | 0V | 00:00:00 | 00:00:00 | 00:00:00 | |
| RDZBGO | 2026-08-31 12:37:49 | 42.04599 | 9.49902 | 252° | 38km/h | 24935m | 3.2m/s | 0°C | 0% | 0hPa | 0V | 00:00:00 | 00:00:00 | 00:00:00 | |
| RDZBGO | 2026-08-31 12:37:29 | 42.04557 | 9.49910 | 234° | 46km/h | 24819m | 4.7m/s | 0°C | 0% | 0hPa | 0V | 00:00:00 | 00:00:00 | 00:00:00 | |
| RDZBGO | 2026-08-31 12:37:08 | 42.04542 | 9.49871 | 209° | 37km/h | 24698m | 5.2m/s | 0°C | 0% | 0hPa | 0V | 00:00:00 | 00:00:00 | 00:00:00 | |
| RDZBGO | 2026-08-31 12:36:47 | 42.04531 | 9.49812 | 213° | 20km/h | 24574m | 3.4m/s | 0°C | 0% | 0hPa | 0V | 00:00:00 | 00:00:00 | 00:00:00 | |
| RDZBGO | 2026-08-31 12:36:26 | 42.04497 | 9.49739 | 212° | 33km/h | 24449m | 5.4m/s | 0°C | 0% | 0hPa | 0V | 00:00:00 | 00:00:00 | 00:00:00 | |
| RDZBGO | 2026-08-31 12:36:05 | 42.04452 | 9.49695 | 288° | 22km/h | 24332m | 5.2m/s | 0°C | 0% | 0hPa | 0V | 00:00:00 | 00:00:00 | 00:00:00 | |
| RDZBGO | 2026-08-31 12:35:44 | 42.04423 | 9.49706 | 240° | 18km/h | 24220m | 7.4m/s | 0°C | 0% | 0hPa | 0V | 00:00:00 | 00:00:00 | 00:00:00 | |
| RDZBGO | 2026-08-31 12:35:24 | 42.04428 | 9.49753 | 313° | 7km/h | 24119m | 6.9m/s | 0°C | 0% | 0hPa | 0V | 00:00:00 | 00:00:00 | 00:00:00 | |
| RDZBGO | 2026-08-31 12:34:42 | 42.04461 | 9.49772 | 304° | 11km/h | 23906m | 8.6m/s | 0°C | 0% | 0hPa | 0V | 00:00:00 | 00:00:00 | 00:00:00 | |
| RDZBGO | 2026-08-31 12:34:22 | 42.04433 | 9.49732 | 55° | 26km/h | 23809m | 3.3m/s | 0°C | 0% | 0hPa | 0V | 00:00:00 | 00:00:00 | 00:00:00 | |
| RDZBGO | 2026-08-31 12:34:00 | 42.04332 | 9.49687 | 34° | 37km/h | 23694m | 6.0m/s | 0°C | 0% | 0hPa | 0V | 00:00:00 | 00:00:00 | 00:00:00 | |
| RDZBGO | 2026-08-31 12:33:40 | 42.04210 | 9.49649 | 106° | 11km/h | 23591m | 2.0m/s | 0°C | 0% | 0hPa | 0V | 00:00:00 | 00:00:00 | 00:00:00 | |
| RDZBGO | 2026-08-31 12:33:20 | 42.04091 | 9.49664 | 287° | 9km/h | 23483m | 2.3m/s | 0°C | 0% | 0hPa | 0V | 00:00:00 | 00:00:00 | 00:00:00 | |
| RDZBGO | 2026-08-31 12:32:59 | 42.03973 | 9.49708 | 287° | 11km/h | 23375m | 3.2m/s | 0°C | 0% | 0hPa | 0V | 00:00:00 | 00:00:00 | 00:00:00 | |
| RDZBGO | 2026-08-31 12:32:38 | 42.03921 | 9.49775 | 244° | 31km/h | 23263m | 3.6m/s | 0°C | 0% | 0hPa | 0V | 00:00:00 | 00:00:00 | 00:00:00 | |
| RDZBGO | 2026-08-31 12:32:18 | 42.03937 | 9.49823 | 168° | 11km/h | 23154m | 5.5m/s | 0°C | 0% | 0hPa | 0V | 00:00:00 | 00:00:00 | 00:00:00 | |
| RDZBGO | 2026-08-31 12:31:58 | 42.03980 | 9.49775 | 178° | 9km/h | 23048m | 4.1m/s | 0°C | 0% | 0hPa | 0V | 00:00:00 | 00:00:00 | 00:00:00 | |
| RDZBGO | 2026-08-31 12:31:17 | 42.03952 | 9.49710 | 68° | 26km/h | 22833m | 6.8m/s | 0°C | 0% | 0hPa | 0V | 00:00:00 | 00:00:00 | 00:00:00 | |
| RDZBGO | 2026-08-31 12:30:56 | 42.03932 | 9.49646 | 50° | 22km/h | 22723m | 4.8m/s | 0°C | 0% | 0hPa | 0V | 00:00:00 | 00:00:00 | 00:00:00 | |
| RDZBGO | 2026-08-31 12:30:36 | 42.03915 | 9.49562 | 65° | 33km/h | 22625m | 4.1m/s | 0°C | 0% | 0hPa | 0V | 00:00:00 | 00:00:00 | 00:00:00 | |
| RDZBGO | 2026-08-31 12:30:15 | 42.03842 | 9.49537 | 21° | 47km/h | 22518m | 5.4m/s | 0°C | 0% | 0hPa | 0V | 00:00:00 | 00:00:00 | 00:00:00 | |
| RDZBGO | 2026-08-31 12:29:55 | 42.03724 | 9.49573 | 5° | 33km/h | 22418m | 7.6m/s | 0°C | 0% | 0hPa | 0V | 00:00:00 | 00:00:00 | 00:00:00 | |
| RDZBGO | 2026-08-31 12:29:35 | 42.03618 | 9.49584 | 28° | 16km/h | 22316m | 6.3m/s | 0°C | 0% | 0hPa | 0V | 00:00:00 | 00:00:00 | 00:00:00 | |
| RDZBGO | 2026-08-31 12:29:14 | 42.03534 | 9.49582 | 358° | 16km/h | 22210m | 5.6m/s | 0°C | 0% | 0hPa | 0V | 00:00:00 | 00:00:00 | 00:00:00 | |
| RDZBGO | 2026-08-31 12:28:54 | 42.03432 | 9.49640 | 341° | 29km/h | 22109m | 6.0m/s | 0°C | 0% | 0hPa | 0V | 00:00:00 | 00:00:00 | 00:00:00 | |
| RDZBGO | 2026-08-31 12:28:33 | 42.03276 | 9.49795 | 301° | 49km/h | 21998m | 5.6m/s | 0°C | 0% | 0hPa | 0V | 00:00:00 | 00:00:00 | 00:00:00 | |
| RDZBGO | 2026-08-31 12:28:13 | 42.03137 | 9.50004 | 306° | 42km/h | 21899m | 6.3m/s | 0°C | 0% | 0hPa | 0V | 00:00:00 | 00:00:00 | 00:00:00 | |
| RDZBGO | 2026-08-31 12:27:52 | 42.03031 | 9.50240 | 285° | 31km/h | 21792m | 4.1m/s | 0°C | 0% | 0hPa | 0V | 00:00:00 | 00:00:00 | 00:00:00 | |
| RDZBGO | 2026-08-31 12:27:32 | 42.02994 | 9.50496 | 300° | 24km/h | 21693m | 3.7m/s | 0°C | 0% | 0hPa | 0V | 00:00:00 | 00:00:00 | 00:00:00 | |
| RDZBGO | 2026-08-31 12:27:11 | 42.03002 | 9.50715 | 240° | 47km/h | 21587m | 5.9m/s | 0°C | 0% | 0hPa | 0V | 00:00:00 | 00:00:00 | 00:00:00 | |
| RDZBGO | 2026-08-31 12:26:51 | 42.03053 | 9.50867 | 255° | 24km/h | 21492m | 4.9m/s | 0°C | 0% | 0hPa | 0V | 00:00:00 | 00:00:00 | 00:00:00 | |
| RDZBGO | 2026-08-31 12:26:30 | 42.03076 | 9.50943 | 255° | 35km/h | 21391m | 4.8m/s | 0°C | 0% | 0hPa | 0V | 00:00:00 | 00:00:00 | 00:00:00 | |
| RDZBGO | 2026-08-31 12:26:09 | 42.03068 | 9.50950 | 337° | 9km/h | 21295m | 3.7m/s | 0°C | 0% | 0hPa | 0V | 00:00:00 | 00:00:00 | 00:00:00 | |
| RDZBGO | 2026-08-31 12:25:49 | 42.03030 | 9.50955 | 293° | 22km/h | 21202m | 5.2m/s | 0°C | 0% | 0hPa | 0V | 00:00:00 | 00:00:00 | 00:00:00 | |
| RDZBGO | 2026-08-31 12:25:29 | 42.02964 | 9.50948 | 343° | 16km/h | 21111m | 5.5m/s | 0°C | 0% | 0hPa | 0V | 00:00:00 | 00:00:00 | 00:00:00 | |
| RDZBGO | 2026-08-31 12:25:08 | 42.02877 | 9.50871 | 30° | 18km/h | 21010m | 5.5m/s | 0°C | 0% | 0hPa | 0V | 00:00:00 | 00:00:00 | 00:00:00 | |
| RDZBGO | 2026-08-31 12:24:47 | 42.02766 | 9.50767 | 41° | 33km/h | 20907m | 5.3m/s | 0°C | 0% | 0hPa | 0V | 00:00:00 | 00:00:00 | 00:00:00 | |
| RDZBGO | 2026-08-31 12:24:26 | 42.02639 | 9.50766 | 7° | 20km/h | 20807m | 3.5m/s | 0°C | 0% | 0hPa | 0V | 00:00:00 | 00:00:00 | 00:00:00 | |
| RDZBGO | 2026-08-31 12:24:05 | 42.02532 | 9.50820 | 328° | 26km/h | 20704m | 6.6m/s | 0°C | 0% | 0hPa | 0V | 00:00:00 | 00:00:00 | 00:00:00 | |
| RDZBGO | 2026-08-31 12:23:45 | 42.02451 | 9.50869 | 310° | 20km/h | 20606m | 2.9m/s | 0°C | 0% | 0hPa | 0V | 00:00:00 | 00:00:00 | 00:00:00 | |
| RDZBGO | 2026-08-31 12:23:25 | 42.02394 | 9.50874 | 348° | 26km/h | 20512m | 3.2m/s | 0°C | 0% | 0hPa | 0V | 00:00:00 | 00:00:00 | 00:00:00 | |
| RDZBGO | 2026-08-31 12:23:05 | 42.02300 | 9.50847 | 56° | 11km/h | 20415m | 5.6m/s | 0°C | 0% | 0hPa | 0V | 00:00:00 | 00:00:00 | 00:00:00 | |
| RDZBGO | 2026-08-31 12:22:45 | 42.02160 | 9.50812 | 9° | 22km/h | 20315m | 3.4m/s | 0°C | 0% | 0hPa | 0V | 00:00:00 | 00:00:00 | 00:00:00 | |
| RDZBGO | 2026-08-31 12:22:24 | 42.02029 | 9.50801 | 347° | 22km/h | 20220m | 3.7m/s | 0°C | 0% | 0hPa | 0V | 00:00:00 | 00:00:00 | 00:00:00 | |
| RDZBGO | 2026-08-31 12:22:03 | 42.01924 | 9.50823 | 56° | 15km/h | 20122m | 4.7m/s | 0°C | 0% | 0hPa | 0V | 00:00:00 | 00:00:00 | 00:00:00 | |
| RDZBGO | 2026-08-31 12:21:42 | 42.01878 | 9.50854 | 360° | 11km/h | 20022m | 5.8m/s | 0°C | 0% | 0hPa | 0V | 00:00:00 | 00:00:00 | 00:00:00 | |
| RDZBGO | 2026-08-31 12:21:22 | 42.01832 | 9.50804 | 65° | 38km/h | 19929m | 3.8m/s | 0°C | 0% | 0hPa | 0V | 00:00:00 | 00:00:00 | 00:00:00 | |
| RDZBGO | 2026-08-31 12:21:01 | 42.01719 | 9.50736 | 12° | 31km/h | 19830m | 5.1m/s | 0°C | 0% | 0hPa | 0V | 00:00:00 | 00:00:00 | 00:00:00 | |
| RDZBGO | 2026-08-31 12:20:40 | 42.01642 | 9.50699 | 117° | 7km/h | 19729m | 5.6m/s | 0°C | 0% | 0hPa | 0V | 00:00:00 | 00:00:00 | 00:00:00 | |
| RDZBGO | 2026-08-31 12:20:19 | 42.01588 | 9.50646 | 51° | 27km/h | 19631m | 4.8m/s | 0°C | 0% | 0hPa | 0V | 00:00:00 | 00:00:00 | 00:00:00 | |
| RDZBGO | 2026-08-31 12:19:58 | 42.01506 | 9.50537 | 35° | 26km/h | 19530m | 5.5m/s | 0°C | 0% | 0hPa | 0V | 00:00:00 | 00:00:00 | 00:00:00 | |
| RDZBGO | 2026-08-31 12:19:38 | 42.01389 | 9.50408 | 23° | 33km/h | 19435m | 6.0m/s | 0°C | 0% | 0hPa | 0V | 00:00:00 | 00:00:00 | 00:00:00 | |
| RDZBGO | 2026-08-31 12:19:18 | 42.01234 | 9.50334 | 18° | 40km/h | 19340m | 5.9m/s | 0°C | 0% | 0hPa | 0V | 00:00:00 | 00:00:00 | 00:00:00 | |
| RDZBGO | 2026-08-31 12:18:58 | 42.01097 | 9.50302 | 2° | 31km/h | 19243m | 3.2m/s | 0°C | 0% | 0hPa | 0V | 00:00:00 | 00:00:00 | 00:00:00 | |
| RDZBGO | 2026-08-31 12:18:37 | 42.00965 | 9.50288 | 336° | 20km/h | 19143m | 5.6m/s | 0°C | 0% | 0hPa | 0V | 00:00:00 | 00:00:00 | 00:00:00 | |
| RDZBGO | 2026-08-31 12:18:17 | 42.00891 | 9.50332 | 354° | 7km/h | 19045m | 4.0m/s | 0°C | 0% | 0hPa | 0V | 00:00:00 | 00:00:00 | 00:00:00 | |
| RDZBGO | 2026-08-31 12:17:56 | 42.00885 | 9.50373 | 269° | 31km/h | 18941m | 5.3m/s | 0°C | 0% | 0hPa | 0V | 00:00:00 | 00:00:00 | 00:00:00 | |
| RDZBGO | 2026-08-31 12:17:34 | 42.00897 | 9.50379 | 165° | 22km/h | 18826m | 4.3m/s | 0°C | 0% | 0hPa | 0V | 00:00:00 | 00:00:00 | 00:00:00 | |
| RDZBGO | 2026-08-31 12:17:13 | 42.00924 | 9.50358 | 161° | 35km/h | 18699m | 6.1m/s | 0°C | 0% | 0hPa | 0V | 00:00:00 | 00:00:00 | 00:00:00 | |
| RDZBGO | 2026-08-31 12:16:51 | 42.00968 | 9.50167 | 100° | 15km/h | 18592m | 4.8m/s | 0°C | 0% | 0hPa | 0V | 00:00:00 | 00:00:00 | 00:00:00 | |
| RDZBGO | 2026-08-31 12:16:26 | 42.00977 | 9.49887 | 89° | 29km/h | 18484m | 4.9m/s | 0°C | 0% | 0hPa | 0V | 00:00:00 | 00:00:00 | 00:00:00 | |
| RDZBGO | 2026-08-31 12:15:55 | 42.00945 | 9.49582 | 83° | 20km/h | 18351m | 4.7m/s | 0°C | 0% | 0hPa | 0V | 00:00:00 | 00:00:00 | 00:00:00 | |
| RDZBGO | 2026-08-31 12:15:28 | 42.00931 | 9.49322 | 87° | 44km/h | 18238m | 2.9m/s | 0°C | 0% | 0hPa | 0V | 00:00:00 | 00:00:00 | 00:00:00 | |
| RDZBGO | 2026-08-31 12:15:08 | 42.00928 | 9.49087 | 87° | 38km/h | 18151m | 5.5m/s | 0°C | 0% | 0hPa | 0V | 00:00:00 | 00:00:00 | 00:00:00 | |
| RDZBGO | 2026-08-31 12:14:35 | 42.00859 | 9.48678 | 61° | 33km/h | 17994m | 5.6m/s | 0°C | 0% | 0hPa | 0V | 00:00:00 | 00:00:00 | 00:00:00 | |
| RDZBGO | 2026-08-31 12:14:15 | 42.00773 | 9.48470 | 48° | 35km/h | 17892m | 5.7m/s | 0°C | 0% | 0hPa | 0V | 00:00:00 | 00:00:00 | 00:00:00 | |
| RDZBGO | 2026-08-31 12:13:54 | 42.00666 | 9.48285 | 39° | 38km/h | 17784m | 3.6m/s | 0°C | 0% | 0hPa | 0V | 00:00:00 | 00:00:00 | 00:00:00 | |
| RDZBGO | 2026-08-31 12:13:34 | 42.00584 | 9.48137 | 93° | 22km/h | 17687m | 4.4m/s | 0°C | 0% | 0hPa | 0V | 00:00:00 | 00:00:00 | 00:00:00 | |
| RDZBGO | 2026-08-31 12:13:14 | 42.00516 | 9.47972 | 52° | 44km/h | 17594m | 4.5m/s | 0°C | 0% | 0hPa | 0V | 00:00:00 | 00:00:00 | 00:00:00 | |
| RDZBGO | 2026-08-31 12:12:54 | 42.00406 | 9.47788 | 42° | 40km/h | 17507m | 5.1m/s | 0°C | 0% | 0hPa | 0V | 00:00:00 | 00:00:00 | 00:00:00 | |
| RDZBGO | 2026-08-31 12:12:34 | 42.00297 | 9.47653 | 67° | 16km/h | 17422m | 3.5m/s | 0°C | 0% | 0hPa | 0V | 00:00:00 | 00:00:00 | 00:00:00 | |
| RDZBGO | 2026-08-31 12:12:12 | 42.00229 | 9.47449 | 68° | 47km/h | 17332m | 3.6m/s | 0°C | 0% | 0hPa | 0V | 00:00:00 | 00:00:00 | 00:00:00 | |
| RDZBGO | 2026-08-31 12:11:49 | 42.00178 | 9.47186 | 92° | 46km/h | 17239m | 2.9m/s | 0°C | 0% | 0hPa | 0V | 00:00:00 | 00:00:00 | 00:00:00 | |
| RDZBGO | 2026-08-31 12:11:24 | 42.00115 | 9.46860 | 99° | 51km/h | 17140m | 4.3m/s | 0°C | 0% | 0hPa | 0V | 00:00:00 | 00:00:00 | 00:00:00 | |
| RDZBGO | 2026-08-31 12:11:03 | 42.00064 | 9.46564 | 48° | 38km/h | 17058m | 4.4m/s | 0°C | 0% | 0hPa | 0V | 00:00:00 | 00:00:00 | 00:00:00 | |
| RDZBGO | 2026-08-31 12:10:40 | 41.99966 | 9.46275 | 53° | 37km/h | 16961m | 5.4m/s | 0°C | 0% | 0hPa | 0V | 00:00:00 | 00:00:00 | 00:00:00 | |
| RDZBGO | 2026-08-31 12:10:18 | 41.99807 | 9.46017 | 66° | 38km/h | 16870m | 5.5m/s | 0°C | 0% | 0hPa | 0V | 00:00:00 | 00:00:00 | 00:00:00 | |
| RDZBGO | 2026-08-31 12:09:58 | 41.99625 | 9.45768 | 38° | 57km/h | 16774m | 5.1m/s | 0°C | 0% | 0hPa | 0V | 00:00:00 | 00:00:00 | 00:00:00 | |
| RDZBGO | 2026-08-31 12:09:37 | 41.99402 | 9.45531 | 16° | 55km/h | 16674m | 2.9m/s | 0°C | 0% | 0hPa | 0V | 00:00:00 | 00:00:00 | 00:00:00 | |
| RDZBGO | 2026-08-31 12:09:16 | 41.99165 | 9.45356 | 6° | 57km/h | 16559m | 6.7m/s | 0°C | 0% | 0hPa | 0V | 00:00:00 | 00:00:00 | 00:00:00 | |
| RDZBGO | 2026-08-31 12:08:56 | 41.98936 | 9.45221 | 48° | 49km/h | 16435m | 10.1m/s | 0°C | 0% | 0hPa | 0V | 00:00:00 | 00:00:00 | 00:00:00 | |
| RDZBGO | 2026-08-31 12:08:35 | 41.98728 | 9.45019 | 30° | 53km/h | 16311m | 6.5m/s | 0°C | 0% | 0hPa | 0V | 00:00:00 | 00:00:00 | 00:00:00 | |
| RDZBGO | 2026-08-31 12:08:15 | 41.98546 | 9.44818 | 42° | 51km/h | 16213m | 5.1m/s | 0°C | 0% | 0hPa | 0V | 00:00:00 | 00:00:00 | 00:00:00 | |
| RDZBGO | 2026-08-31 12:07:54 | 41.98410 | 9.44607 | 68° | 26km/h | 16119m | 5.3m/s | 0°C | 0% | 0hPa | 0V | 00:00:00 | 00:00:00 | 00:00:00 | |
| RDZBGO | 2026-08-31 12:07:34 | 41.98334 | 9.44391 | 75° | 47km/h | 16029m | 5.1m/s | 0°C | 0% | 0hPa | 0V | 00:00:00 | 00:00:00 | 00:00:00 | |
| RDZBGO | 2026-08-31 12:07:14 | 41.98331 | 9.44134 | 93° | 35km/h | 15949m | 3.5m/s | 0°C | 0% | 0hPa | 0V | 00:00:00 | 00:00:00 | 00:00:00 | |
| RDZBGO | 2026-08-31 12:06:53 | 41.98370 | 9.43804 | 98° | 49km/h | 15865m | 5.4m/s | 0°C | 0% | 0hPa | 0V | 00:00:00 | 00:00:00 | 00:00:00 | |
| RDZBGO | 2026-08-31 12:06:32 | 41.98393 | 9.43394 | 96° | 62km/h | 15782m | 3.5m/s | 0°C | 0% | 0hPa | 0V | 00:00:00 | 00:00:00 | 00:00:00 | |
| RDZBGO | 2026-08-31 12:06:11 | 41.98418 | 9.42925 | 94° | 73km/h | 15696m | 3.6m/s | 0°C | 0% | 0hPa | 0V | 00:00:00 | 00:00:00 | 00:00:00 | |
| RDZBGO | 2026-08-31 12:05:51 | 41.98401 | 9.42458 | 80° | 69km/h | 15616m | 5.0m/s | 0°C | 0% | 0hPa | 0V | 00:00:00 | 00:00:00 | 00:00:00 | |
| RDZBGO | 2026-08-31 12:05:30 | 41.98310 | 9.41953 | 79° | 78km/h | 15529m | 3.6m/s | 0°C | 0% | 0hPa | 0V | 00:00:00 | 00:00:00 | 00:00:00 | |
| RDZBGO | 2026-08-31 12:05:10 | 41.98183 | 9.41469 | 58° | 78km/h | 15445m | 4.6m/s | 0°C | 0% | 0hPa | 0V | 00:00:00 | 00:00:00 | 00:00:00 | |
| RDZBGO | 2026-08-31 12:04:49 | 41.98066 | 9.41010 | 67° | 68km/h | 15357m | 3.7m/s | 0°C | 0% | 0hPa | 0V | 00:00:00 | 00:00:00 | 00:00:00 | |
| RDZBGO | 2026-08-31 12:04:28 | 41.97947 | 9.40562 | 79° | 64km/h | 15266m | 3.9m/s | 0°C | 0% | 0hPa | 0V | 00:00:00 | 00:00:00 | 00:00:00 | |
| RDZBGO | 2026-08-31 12:04:08 | 41.97854 | 9.40177 | 78° | 55km/h | 15171m | 4.6m/s | 0°C | 0% | 0hPa | 0V | 00:00:00 | 00:00:00 | 00:00:00 | |
| RDZBGO | 2026-08-31 12:03:47 | 41.97773 | 9.39809 | 83° | 37km/h | 15073m | 4.8m/s | 0°C | 0% | 0hPa | 0V | 00:00:00 | 00:00:00 | 00:00:00 | |
| RDZBGO | 2026-08-31 12:03:27 | 41.97725 | 9.39483 | 80° | 53km/h | 14977m | 6.1m/s | 0°C | 0% | 0hPa | 0V | 00:00:00 | 00:00:00 | 00:00:00 | |
| RDZBGO | 2026-08-31 12:03:07 | 41.97701 | 9.39109 | 84° | 64km/h | 14875m | 4.1m/s | 0°C | 0% | 0hPa | 0V | 00:00:00 | 00:00:00 | 00:00:00 | |
| RDZBGO | 2026-08-31 12:02:47 | 41.97692 | 9.38643 | 92° | 71km/h | 14765m | 6.2m/s | 0°C | 0% | 0hPa | 0V | 00:00:00 | 00:00:00 | 00:00:00 | |
| RDZBGO | 2026-08-31 12:02:27 | 41.97680 | 9.38165 | 82° | 77km/h | 14665m | 5.8m/s | 0°C | 0% | 0hPa | 0V | 00:00:00 | 00:00:00 | 00:00:00 | |
| RDZBGO | 2026-08-31 12:02:05 | 41.97653 | 9.37627 | 91° | 71km/h | 14558m | 4.4m/s | 0°C | 0% | 0hPa | 0V | 00:00:00 | 00:00:00 | 00:00:00 | |
| RDZBGO | 2026-08-31 12:01:45 | 41.97595 | 9.37055 | 83° | 86km/h | 14457m | 4.6m/s | 0°C | 0% | 0hPa | 0V | 00:00:00 | 00:00:00 | 00:00:00 | |
| RDZBGO | 2026-08-31 12:01:24 | 41.97520 | 9.36501 | 84° | 84km/h | 14362m | 4.4m/s | 0°C | 0% | 0hPa | 0V | 00:00:00 | 00:00:00 | 00:00:00 | |
| RDZBGO | 2026-08-31 12:01:04 | 41.97436 | 9.35971 | 76° | 77km/h | 14273m | 5.7m/s | 0°C | 0% | 0hPa | 0V | 00:00:00 | 00:00:00 | 00:00:00 | |
| RDZBGO | 2026-08-31 12:00:43 | 41.97336 | 9.35410 | 87° | 78km/h | 14187m | 6.3m/s | 0°C | 0% | 0hPa | 0V | 00:00:00 | 00:00:00 | 00:00:00 | |
| RDZBGO | 2026-08-31 12:00:23 | 41.97257 | 9.34889 | 77° | 78km/h | 14105m | 4.8m/s | 0°C | 0% | 0hPa | 0V | 00:00:00 | 00:00:00 | 00:00:00 | |
| RDZBGO | 2026-08-31 12:00:02 | 41.97195 | 9.34297 | 80° | 80km/h | 14023m | 3.6m/s | 0°C | 0% | 0hPa | 0V | 00:00:00 | 00:00:00 | 00:00:00 | |
| RDZBGO | 2026-08-31 11:59:41 | 41.97146 | 9.33697 | 82° | 88km/h | 13948m | 1.8m/s | 0°C | 0% | 0hPa | 0V | 00:00:00 | 00:00:00 | 00:00:00 | |
| RDZBGO | 2026-08-31 11:59:21 | 41.97091 | 9.33116 | 83° | 82km/h | 13876m | 4.2m/s | 0°C | 0% | 0hPa | 0V | 00:00:00 | 00:00:00 | 00:00:00 | |
| RDZBGO | 2026-08-31 11:59:00 | 41.96997 | 9.32486 | 81° | 84km/h | 13800m | 3.5m/s | 0°C | 0% | 0hPa | 0V | 00:00:00 | 00:00:00 | 00:00:00 | |
| RDZBGO | 2026-08-31 11:58:40 | 41.96903 | 9.31869 | 80° | 102km/h | 13725m | 1.7m/s | 0°C | 0% | 0hPa | 0V | 00:00:00 | 00:00:00 | 00:00:00 | |
| RDZBGO | 2026-08-31 11:58:18 | 41.96797 | 9.31180 | 77° | 100km/h | 13643m | 4.0m/s | 0°C | 0% | 0hPa | 0V | 00:00:00 | 00:00:00 | 00:00:00 | |
| RDZBGO | 2026-08-31 11:57:58 | 41.96684 | 9.30555 | 79° | 91km/h | 13567m | 4.4m/s | 0°C | 0% | 0hPa | 0V | 00:00:00 | 00:00:00 | 00:00:00 | |
| RDZBGO | 2026-08-31 11:57:38 | 41.96590 | 9.29911 | 77° | 97km/h | 13486m | 4.6m/s | 0°C | 0% | 0hPa | 0V | 00:00:00 | 00:00:00 | 00:00:00 | |
| RDZBGO | 2026-08-31 11:57:17 | 41.96443 | 9.29238 | 76° | 104km/h | 13378m | 2.8m/s | 0°C | 0% | 0hPa | 0V | 00:00:00 | 00:00:00 | 00:00:00 | |
| RDZBGO | 2026-08-31 11:56:57 | 41.96299 | 9.28610 | 73° | 93km/h | 13278m | 4.3m/s | 0°C | 0% | 0hPa | 0V | 00:00:00 | 00:00:00 | 00:00:00 | |
| RDZBGO | 2026-08-31 11:56:37 | 41.96160 | 9.27977 | 74° | 93km/h | 13151m | 3.9m/s | 0°C | 0% | 0hPa | 0V | 00:00:00 | 00:00:00 | 00:00:00 | |
| RDZBGO | 2026-08-31 11:56:15 | 41.96033 | 9.27323 | 78° | 91km/h | 13035m | 4.3m/s | 0°C | 0% | 0hPa | 0V | 00:00:00 | 00:00:00 | 00:00:00 | |
| RDZBGO | 2026-08-31 11:55:56 | 41.95921 | 9.26682 | 75° | 93km/h | 12924m | 8.2m/s | 0°C | 0% | 0hPa | 0V | 00:00:00 | 00:00:00 | 00:00:00 | |
| RDZBGO | 2026-08-31 11:55:34 | 41.95817 | 9.25997 | 91° | 97km/h | 12800m | 2.9m/s | 0°C | 0% | 0hPa | 0V | 00:00:00 | 00:00:00 | 00:00:00 | |
| RDZBGO | 2026-08-31 11:55:13 | 41.95708 | 9.25332 | 81° | 95km/h | 12678m | 5.7m/s | 0°C | 0% | 0hPa | 0V | 00:00:00 | 00:00:00 | 00:00:00 | |
| RDZBGO | 2026-08-31 11:54:52 | 41.95585 | 9.24684 | 71° | 89km/h | 12555m | 4.1m/s | 0°C | 0% | 0hPa | 0V | 00:00:00 | 00:00:00 | 00:00:00 | |
| RDZBGO | 2026-08-31 11:54:32 | 41.95490 | 9.24053 | 75° | 88km/h | 12450m | 3.7m/s | 0°C | 0% | 0hPa | 0V | 00:00:00 | 00:00:00 | 00:00:00 | |
| RDZBGO | 2026-08-31 11:54:12 | 41.95397 | 9.23414 | 79° | 115km/h | 12352m | 4.1m/s | 0°C | 0% | 0hPa | 0V | 00:00:00 | 00:00:00 | 00:00:00 | |
| RDZBGO | 2026-08-31 11:53:50 | 41.95289 | 9.22752 | 85° | 95km/h | 12249m | 4.0m/s | 0°C | 0% | 0hPa | 0V | 00:00:00 | 00:00:00 | 00:00:00 | |
| RDZBGO | 2026-08-31 11:53:29 | 41.95190 | 9.22110 | 78° | 88km/h | 12155m | 4.7m/s | 0°C | 0% | 0hPa | 0V | 00:00:00 | 00:00:00 | 00:00:00 | |
| RDZBGO | 2026-08-31 11:53:08 | 41.95088 | 9.21464 | 86° | 102km/h | 12060m | 4.2m/s | 0°C | 0% | 0hPa | 0V | 00:00:00 | 00:00:00 | 00:00:00 | |
| RDZBGO | 2026-08-31 11:52:48 | 41.94985 | 9.20845 | 79° | 100km/h | 11974m | 4.0m/s | 0°C | 0% | 0hPa | 0V | 00:00:00 | 00:00:00 | 00:00:00 | |
| RDZBGO | 2026-08-31 11:52:28 | 41.94886 | 9.20208 | 76° | 86km/h | 11885m | 3.0m/s | 0°C | 0% | 0hPa | 0V | 00:00:00 | 00:00:00 | 00:00:00 | |
| RDZBGO | 2026-08-31 11:52:07 | 41.94774 | 9.19543 | 73° | 100km/h | 11805m | 4.7m/s | 0°C | 0% | 0hPa | 0V | 00:00:00 | 00:00:00 | 00:00:00 | |
| RDZBGO | 2026-08-31 11:51:46 | 41.94633 | 9.18915 | 71° | 93km/h | 11721m | 4.6m/s | 0°C | 0% | 0hPa | 0V | 00:00:00 | 00:00:00 | 00:00:00 | |
| RDZBGO | 2026-08-31 11:50:52 | 41.94292 | 9.17255 | 73° | 91km/h | 11510m | 5.0m/s | 0°C | 0% | 0hPa | 0V | 00:00:00 | 00:00:00 | 00:00:00 | |
| RDZBGO | 2026-08-31 11:50:31 | 41.94160 | 9.16594 | 80° | 78km/h | 11424m | 4.2m/s | 0°C | 0% | 0hPa | 0V | 00:00:00 | 00:00:00 | 00:00:00 | |
| RDZBGO | 2026-08-31 11:50:11 | 41.94020 | 9.15975 | 73° | 91km/h | 11341m | 6.5m/s | 0°C | 0% | 0hPa | 0V | 00:00:00 | 00:00:00 | 00:00:00 | |
| RDZBGO | 2026-08-31 11:49:51 | 41.93884 | 9.15359 | 80° | 99km/h | 11241m | 4.4m/s | 0°C | 0% | 0hPa | 0V | 00:00:00 | 00:00:00 | 00:00:00 | |
| RDZBGO | 2026-08-31 11:49:26 | 41.93690 | 9.14610 | 74° | 77km/h | 11128m | 4.1m/s | 0°C | 0% | 0hPa | 0V | 00:00:00 | 00:00:00 | 00:00:00 | |
| RDZBGO | 2026-08-31 11:49:05 | 41.93523 | 9.13999 | 76° | 99km/h | 11025m | 5.0m/s | 0°C | 0% | 0hPa | 0V | 00:00:00 | 00:00:00 | 00:00:00 | |
| RDZBGO | 2026-08-31 11:48:44 | 41.93366 | 9.13406 | 69° | 78km/h | 10929m | 5.8m/s | 0°C | 0% | 0hPa | 0V | 00:00:00 | 00:00:00 | 00:00:00 | |
| RDZBGO | 2026-08-31 11:48:20 | 41.93170 | 9.12725 | 75° | 99km/h | 10823m | 2.5m/s | 0°C | 0% | 0hPa | 0V | 00:00:00 | 00:00:00 | 00:00:00 | |
| RDZBGO | 2026-08-31 11:47:28 | 41.92854 | 9.11325 | 84° | 91km/h | 10584m | 3.7m/s | 0°C | 0% | 0hPa | 0V | 00:00:00 | 00:00:00 | 00:00:00 | |
| RDZBGO | 2026-08-31 11:47:08 | 41.92751 | 9.10786 | 71° | 82km/h | 10492m | 3.2m/s | 0°C | 0% | 0hPa | 0V | 00:00:00 | 00:00:00 | 00:00:00 | |
| RDZBGO | 2026-08-31 11:46:46 | 41.92627 | 9.10188 | 82° | 95km/h | 10381m | 4.8m/s | 0°C | 0% | 0hPa | 0V | 00:00:00 | 00:00:00 | 00:00:00 | |
| RDZBGO | 2026-08-31 11:46:10 | 41.92440 | 9.09285 | 69° | 75km/h | 10210m | 5.6m/s | 0°C | 0% | 0hPa | 0V | 00:00:00 | 00:00:00 | 00:00:00 | |
| RDZBGO | 2026-08-31 11:45:49 | 41.92300 | 9.08797 | 71° | 73km/h | 10107m | 4.7m/s | 0°C | 0% | 0hPa | 0V | 00:00:00 | 00:00:00 | 00:00:00 | |
| RDZBGO | 2026-08-31 11:45:29 | 41.92161 | 9.08315 | 67° | 73km/h | 10015m | 7.6m/s | 0°C | 0% | 0hPa | 0V | 00:00:00 | 00:00:00 | 00:00:00 | |
| RDZBGO | 2026-08-31 11:45:08 | 41.92021 | 9.07811 | 68° | 68km/h | 9915m | 4.9m/s | 0°C | 0% | 0hPa | 0V | 00:00:00 | 00:00:00 | 00:00:00 | |
| RDZBGO | 2026-08-31 11:44:48 | 41.91888 | 9.07331 | 67° | 84km/h | 9820m | 4.0m/s | 0°C | 0% | 0hPa | 0V | 00:00:00 | 00:00:00 | 00:00:00 | |
| RDZBGO | 2026-08-31 11:44:28 | 41.91771 | 9.06854 | 69° | 66km/h | 9720m | 7.2m/s | 0°C | 0% | 0hPa | 0V | 00:00:00 | 00:00:00 | 00:00:00 | |
| RDZBGO | 2026-08-31 11:44:07 | 41.91661 | 9.06352 | 75° | 68km/h | 9607m | 4.3m/s | 0°C | 0% | 0hPa | 0V | 00:00:00 | 00:00:00 | 00:00:00 | |
| RDZBGO | 2026-08-31 11:43:47 | 41.91547 | 9.05869 | 76° | 88km/h | 9500m | 4.5m/s | 0°C | 0% | 0hPa | 0V | 00:00:00 | 00:00:00 | 00:00:00 | |
| RDZBGO | 2026-08-31 11:43:27 | 41.91439 | 9.05345 | 87° | 77km/h | 9395m | 5.0m/s | 0°C | 0% | 0hPa | 0V | 00:00:00 | 00:00:00 | 00:00:00 | |
| RDZBGO | 2026-08-31 11:43:06 | 41.91332 | 9.04880 | 71° | 91km/h | 9290m | 8.1m/s | 0°C | 0% | 0hPa | 0V | 00:00:00 | 00:00:00 | 00:00:00 | |
| RDZBGO | 2026-08-31 11:42:45 | 41.91217 | 9.04382 | 78° | 60km/h | 9175m | 7.0m/s | 0°C | 0% | 0hPa | 0V | 00:00:00 | 00:00:00 | 00:00:00 | |
| RDZBGO | 2026-08-31 11:42:25 | 41.91112 | 9.03927 | 83° | 82km/h | 9074m | 4.7m/s | 0°C | 0% | 0hPa | 0V | 00:00:00 | 00:00:00 | 00:00:00 | |
| RDZBGO | 2026-08-31 11:42:04 | 41.91023 | 9.03428 | 71° | 73km/h | 8961m | 6.5m/s | 0°C | 0% | 0hPa | 0V | 00:00:00 | 00:00:00 | 00:00:00 | |
| RDZBGO | 2026-08-31 11:41:44 | 41.90918 | 9.02969 | 71° | 68km/h | 8840m | 8.5m/s | 0°C | 0% | 0hPa | 0V | 00:00:00 | 00:00:00 | 00:00:00 | |
| RDZBGO | 2026-08-31 11:41:24 | 41.90799 | 9.02515 | 74° | 73km/h | 8745m | 5.0m/s | 0°C | 0% | 0hPa | 0V | 00:00:00 | 00:00:00 | 00:00:00 | |
| RDZBGO | 2026-08-31 11:41:04 | 41.90675 | 9.02051 | 81° | 64km/h | 8648m | 3.9m/s | 0°C | 0% | 0hPa | 0V | 00:00:00 | 00:00:00 | 00:00:00 | |
| RDZBGO | 2026-08-31 11:40:43 | 41.90528 | 9.01574 | 64° | 84km/h | 8533m | 7.5m/s | 0°C | 0% | 0hPa | 0V | 00:00:00 | 00:00:00 | 00:00:00 | |
| RDZBGO | 2026-08-31 11:40:22 | 41.90386 | 9.01069 | 76° | 69km/h | 8402m | 7.1m/s | 0°C | 0% | 0hPa | 0V | 00:00:00 | 00:00:00 | 00:00:00 | |
| RDZBGO | 2026-08-31 11:40:02 | 41.90274 | 9.00573 | 74° | 64km/h | 8281m | 4.4m/s | 0°C | 0% | 0hPa | 0V | 00:00:00 | 00:00:00 | 00:00:00 | |
| RDZBGO | 2026-08-31 11:39:41 | 41.90188 | 9.00053 | 64° | 78km/h | 8148m | 5.7m/s | 0°C | 0% | 0hPa | 0V | 00:00:00 | 00:00:00 | 00:00:00 | |
| RDZBGO | 2026-08-31 11:39:21 | 41.90123 | 8.99571 | 92° | 82km/h | 8038m | 5.9m/s | 0°C | 0% | 0hPa | 0V | 00:00:00 | 00:00:00 | 00:00:00 | |
| RDZBGO | 2026-08-31 11:39:00 | 41.90082 | 8.99108 | 89° | 47km/h | 7927m | 3.2m/s | 0°C | 0% | 0hPa | 0V | 00:00:00 | 00:00:00 | 00:00:00 | |
| RDZBGO | 2026-08-31 11:38:39 | 41.90048 | 8.98662 | 92° | 58km/h | 7794m | 6.9m/s | 0°C | 0% | 0hPa | 0V | 00:00:00 | 00:00:00 | 00:00:00 | |
| RDZBGO | 2026-08-31 11:38:19 | 41.90005 | 8.98222 | 84° | 58km/h | 7681m | 3.0m/s | 0°C | 0% | 0hPa | 0V | 00:00:00 | 00:00:00 | 00:00:00 | |
| RDZBGO | 2026-08-31 11:37:58 | 41.89957 | 8.97711 | 84° | 78km/h | 7558m | 6.0m/s | 0°C | 0% | 0hPa | 0V | 00:00:00 | 00:00:00 | 00:00:00 | |
| RDZBGO | 2026-08-31 11:37:37 | 41.89903 | 8.97215 | 78° | 66km/h | 7437m | 7.1m/s | 0°C | 0% | 0hPa | 0V | 00:00:00 | 00:00:00 | 00:00:00 | |
| RDZBGO | 2026-08-31 11:37:16 | 41.89838 | 8.96725 | 73° | 75km/h | 7329m | 3.9m/s | 0°C | 0% | 0hPa | 0V | 00:00:00 | 00:00:00 | 00:00:00 | |
| RDZBGO | 2026-08-31 11:36:56 | 41.89827 | 8.96231 | 78° | 75km/h | 7218m | 4.2m/s | 0°C | 0% | 0hPa | 0V | 00:00:00 | 00:00:00 | 00:00:00 | |
| RDZBGO | 2026-08-31 11:36:35 | 41.89806 | 8.95740 | 90° | 84km/h | 7124m | 4.7m/s | 0°C | 0% | 0hPa | 0V | 00:00:00 | 00:00:00 | 00:00:00 | |
| RDZBGO | 2026-08-31 11:36:15 | 41.89803 | 8.95277 | 91° | 75km/h | 7009m | 5.6m/s | 0°C | 0% | 0hPa | 0V | 00:00:00 | 00:00:00 | 00:00:00 |